<?xml version="1.0" encoding="UTF-8" standalone="no" ?>
<gpx xmlns="http://www.topografix.com/GPX/1/1" xmlns:xsi="http://www.w3.org/2001/XMLSchema-instance" xsi:schemaLocation="http://www.topografix.com/GPX/1/1 http://www.topografix.com/GPX/1/1/gpx.xsd" version="1.1" creator="VisuGPX - https://www.visugpx.com">
  <metadata>
    <name>Entre Venasque et Camp long</name>
    <desc><![CDATA[Balade au départ de Venasque passant par la combe Diable et Camp Long.]]></desc>
  </metadata>
  <trk>
    <name><![CDATA[2020-02-03 15-08-04]]></name>
    <trkseg>
      <trkpt lat="44.00015" lon="5.14445">
        <ele>205.86</ele>
        <time>2020-02-03T08:26:26Z</time>
      </trkpt>
      <trkpt lat="44.00015" lon="5.14445">
        <ele>205.86</ele>
        <time>2020-02-03T08:26:27Z</time>
      </trkpt>
      <trkpt lat="44.00014" lon="5.14447">
        <ele>204.42</ele>
        <time>2020-02-03T08:26:58Z</time>
      </trkpt>
      <trkpt lat="44.00011" lon="5.14447">
        <ele>204.42</ele>
        <time>2020-02-03T08:27:33Z</time>
      </trkpt>
      <trkpt lat="44.00017" lon="5.14451">
        <ele>204.9</ele>
        <time>2020-02-03T08:28:05Z</time>
      </trkpt>
      <trkpt lat="44.00019" lon="5.14449">
        <ele>204.42</ele>
        <time>2020-02-03T08:28:37Z</time>
      </trkpt>
      <trkpt lat="44.00014" lon="5.14449">
        <ele>204.42</ele>
        <time>2020-02-03T08:29:09Z</time>
      </trkpt>
      <trkpt lat="44.00018" lon="5.14453">
        <ele>204.42</ele>
        <time>2020-02-03T08:29:40Z</time>
      </trkpt>
      <trkpt lat="44.00019" lon="5.14453">
        <ele>204.42</ele>
        <time>2020-02-03T08:30:10Z</time>
      </trkpt>
      <trkpt lat="44.00021" lon="5.14461">
        <ele>204.42</ele>
        <time>2020-02-03T08:30:43Z</time>
      </trkpt>
      <trkpt lat="44.00021" lon="5.14459">
        <ele>204.42</ele>
        <time>2020-02-03T08:31:19Z</time>
      </trkpt>
      <trkpt lat="44.00014" lon="5.14452">
        <ele>204.42</ele>
        <time>2020-02-03T08:31:54Z</time>
      </trkpt>
      <trkpt lat="44.00007" lon="5.14451">
        <ele>204.42</ele>
        <time>2020-02-03T08:32:28Z</time>
      </trkpt>
      <trkpt lat="44.00011" lon="5.14451">
        <ele>204.42</ele>
        <time>2020-02-03T08:32:59Z</time>
      </trkpt>
      <trkpt lat="44.00006" lon="5.14448">
        <ele>204.42</ele>
        <time>2020-02-03T08:33:33Z</time>
      </trkpt>
      <trkpt lat="44.00003" lon="5.14449">
        <ele>204.42</ele>
        <time>2020-02-03T08:33:53Z</time>
      </trkpt>
      <trkpt lat="44.00014" lon="5.14447">
        <ele>204.9</ele>
        <time>2020-02-03T08:34:25Z</time>
      </trkpt>
      <trkpt lat="44.00013" lon="5.14447">
        <ele>205.38</ele>
        <time>2020-02-03T08:34:57Z</time>
      </trkpt>
      <trkpt lat="44.00005" lon="5.14448">
        <ele>205.38</ele>
        <time>2020-02-03T08:35:32Z</time>
      </trkpt>
      <trkpt lat="44.0001" lon="5.14442">
        <ele>205.38</ele>
        <time>2020-02-03T08:36:07Z</time>
      </trkpt>
      <trkpt lat="44.00012" lon="5.14443">
        <ele>205.38</ele>
        <time>2020-02-03T08:36:38Z</time>
      </trkpt>
      <trkpt lat="44.00028" lon="5.14442">
        <ele>205.38</ele>
        <time>2020-02-03T08:37:12Z</time>
      </trkpt>
      <trkpt lat="44.00017" lon="5.14444">
        <ele>204.9</ele>
        <time>2020-02-03T08:37:33Z</time>
      </trkpt>
      <trkpt lat="44.00012" lon="5.14446">
        <ele>204.9</ele>
        <time>2020-02-03T08:38:03Z</time>
      </trkpt>
      <trkpt lat="44.00008" lon="5.14448">
        <ele>204.42</ele>
        <time>2020-02-03T08:38:33Z</time>
      </trkpt>
      <trkpt lat="44.00005" lon="5.14443">
        <ele>204.42</ele>
        <time>2020-02-03T08:39:08Z</time>
      </trkpt>
      <trkpt lat="44.00005" lon="5.14448">
        <ele>204.42</ele>
        <time>2020-02-03T08:39:40Z</time>
      </trkpt>
      <trkpt lat="44.00004" lon="5.1445">
        <ele>205.38</ele>
        <time>2020-02-03T08:40:09Z</time>
      </trkpt>
      <trkpt lat="44.00006" lon="5.14449">
        <ele>204.9</ele>
        <time>2020-02-03T08:40:31Z</time>
      </trkpt>
      <trkpt lat="44.00007" lon="5.14445">
        <ele>204.9</ele>
        <time>2020-02-03T08:40:56Z</time>
      </trkpt>
      <trkpt lat="44.0001" lon="5.14445">
        <ele>205.38</ele>
        <time>2020-02-03T08:41:19Z</time>
      </trkpt>
      <trkpt lat="44.00024" lon="5.14443">
        <ele>204.9</ele>
        <time>2020-02-03T08:41:39Z</time>
      </trkpt>
      <trkpt lat="44.00024" lon="5.14443">
        <ele>204.42</ele>
        <time>2020-02-03T08:41:56Z</time>
      </trkpt>
      <trkpt lat="44.00041" lon="5.14444">
        <ele>202.98</ele>
        <time>2020-02-03T08:42:15Z</time>
      </trkpt>
      <trkpt lat="44.00047" lon="5.14455">
        <ele>202.01</ele>
        <time>2020-02-03T08:42:34Z</time>
      </trkpt>
      <trkpt lat="44.00055" lon="5.14471">
        <ele>201.05</ele>
        <time>2020-02-03T08:42:53Z</time>
      </trkpt>
      <trkpt lat="44.00057" lon="5.14472">
        <ele>200.57</ele>
        <time>2020-02-03T08:42:55Z</time>
      </trkpt>
      <trkpt lat="44.00065" lon="5.14479">
        <ele>200.09</ele>
        <time>2020-02-03T08:43:07Z</time>
      </trkpt>
      <trkpt lat="44.00074" lon="5.14492">
        <ele>199.61</ele>
        <time>2020-02-03T08:43:21Z</time>
      </trkpt>
      <trkpt lat="44.00085" lon="5.14506">
        <ele>199.13</ele>
        <time>2020-02-03T08:43:35Z</time>
      </trkpt>
      <trkpt lat="44.00097" lon="5.14515">
        <ele>198.65</ele>
        <time>2020-02-03T08:43:47Z</time>
      </trkpt>
      <trkpt lat="44.00097" lon="5.14518">
        <ele>199.13</ele>
        <time>2020-02-03T08:43:49Z</time>
      </trkpt>
      <trkpt lat="44.00097" lon="5.14518">
        <ele>198.65</ele>
        <time>2020-02-03T08:44:06Z</time>
      </trkpt>
      <trkpt lat="44.00099" lon="5.14507">
        <ele>199.61</ele>
        <time>2020-02-03T08:44:39Z</time>
      </trkpt>
      <trkpt lat="44.00099" lon="5.14502">
        <ele>199.13</ele>
        <time>2020-02-03T08:45:13Z</time>
      </trkpt>
      <trkpt lat="44.00096" lon="5.14505">
        <ele>199.13</ele>
        <time>2020-02-03T08:45:27Z</time>
      </trkpt>
      <trkpt lat="44.00094" lon="5.14543">
        <ele>198.65</ele>
        <time>2020-02-03T08:45:47Z</time>
      </trkpt>
      <trkpt lat="44.00077" lon="5.14548">
        <ele>199.13</ele>
        <time>2020-02-03T08:46:08Z</time>
      </trkpt>
      <trkpt lat="44.00059" lon="5.14551">
        <ele>199.13</ele>
        <time>2020-02-03T08:46:29Z</time>
      </trkpt>
      <trkpt lat="44.00038" lon="5.14556">
        <ele>199.61</ele>
        <time>2020-02-03T08:46:52Z</time>
      </trkpt>
      <trkpt lat="44.00023" lon="5.14574">
        <ele>200.09</ele>
        <time>2020-02-03T08:47:12Z</time>
      </trkpt>
      <trkpt lat="44.0002" lon="5.14593">
        <ele>200.09</ele>
        <time>2020-02-03T08:47:28Z</time>
      </trkpt>
      <trkpt lat="44.0002" lon="5.14596">
        <ele>200.09</ele>
        <time>2020-02-03T08:47:42Z</time>
      </trkpt>
      <trkpt lat="44.00011" lon="5.14611">
        <ele>200.09</ele>
        <time>2020-02-03T08:48:00Z</time>
      </trkpt>
      <trkpt lat="44.00011" lon="5.14616">
        <ele>200.09</ele>
        <time>2020-02-03T08:48:05Z</time>
      </trkpt>
      <trkpt lat="43.99993" lon="5.14632">
        <ele>200.57</ele>
        <time>2020-02-03T08:48:19Z</time>
      </trkpt>
      <trkpt lat="43.99984" lon="5.14649">
        <ele>200.57</ele>
        <time>2020-02-03T08:48:33Z</time>
      </trkpt>
      <trkpt lat="43.99983" lon="5.14651">
        <ele>200.57</ele>
        <time>2020-02-03T08:48:34Z</time>
      </trkpt>
      <trkpt lat="43.99972" lon="5.14688">
        <ele>201.05</ele>
        <time>2020-02-03T08:48:57Z</time>
      </trkpt>
      <trkpt lat="43.99963" lon="5.14717">
        <ele>201.05</ele>
        <time>2020-02-03T08:49:17Z</time>
      </trkpt>
      <trkpt lat="43.99958" lon="5.14749">
        <ele>201.53</ele>
        <time>2020-02-03T08:49:37Z</time>
      </trkpt>
      <trkpt lat="43.99951" lon="5.14773">
        <ele>201.53</ele>
        <time>2020-02-03T08:49:56Z</time>
      </trkpt>
      <trkpt lat="43.99947" lon="5.14791">
        <ele>201.53</ele>
        <time>2020-02-03T08:50:08Z</time>
      </trkpt>
      <trkpt lat="43.99941" lon="5.14805">
        <ele>202.01</ele>
        <time>2020-02-03T08:50:15Z</time>
      </trkpt>
      <trkpt lat="43.99938" lon="5.14834">
        <ele>202.01</ele>
        <time>2020-02-03T08:50:33Z</time>
      </trkpt>
      <trkpt lat="43.99931" lon="5.14855">
        <ele>202.49</ele>
        <time>2020-02-03T08:50:45Z</time>
      </trkpt>
      <trkpt lat="43.99931" lon="5.14857">
        <ele>202.49</ele>
        <time>2020-02-03T08:50:46Z</time>
      </trkpt>
      <trkpt lat="43.99932" lon="5.14884">
        <ele>202.98</ele>
        <time>2020-02-03T08:51:05Z</time>
      </trkpt>
      <trkpt lat="43.99938" lon="5.14911">
        <ele>202.98</ele>
        <time>2020-02-03T08:51:23Z</time>
      </trkpt>
      <trkpt lat="43.99938" lon="5.14916">
        <ele>202.98</ele>
        <time>2020-02-03T08:51:27Z</time>
      </trkpt>
      <trkpt lat="43.99936" lon="5.14938">
        <ele>203.46</ele>
        <time>2020-02-03T08:51:41Z</time>
      </trkpt>
      <trkpt lat="43.9993" lon="5.1495">
        <ele>203.94</ele>
        <time>2020-02-03T08:51:51Z</time>
      </trkpt>
      <trkpt lat="43.99916" lon="5.14959">
        <ele>203.94</ele>
        <time>2020-02-03T08:52:06Z</time>
      </trkpt>
      <trkpt lat="43.99906" lon="5.14974">
        <ele>203.94</ele>
        <time>2020-02-03T08:52:20Z</time>
      </trkpt>
      <trkpt lat="43.99904" lon="5.14981">
        <ele>203.94</ele>
        <time>2020-02-03T08:52:25Z</time>
      </trkpt>
      <trkpt lat="43.99902" lon="5.14984">
        <ele>203.94</ele>
        <time>2020-02-03T08:52:27Z</time>
      </trkpt>
      <trkpt lat="43.99898" lon="5.14996">
        <ele>203.94</ele>
        <time>2020-02-03T08:52:44Z</time>
      </trkpt>
      <trkpt lat="43.99892" lon="5.15018">
        <ele>204.42</ele>
        <time>2020-02-03T08:53:01Z</time>
      </trkpt>
      <trkpt lat="43.99885" lon="5.15036">
        <ele>204.42</ele>
        <time>2020-02-03T08:53:15Z</time>
      </trkpt>
      <trkpt lat="43.99878" lon="5.15056">
        <ele>204.42</ele>
        <time>2020-02-03T08:53:29Z</time>
      </trkpt>
      <trkpt lat="43.9987" lon="5.15082">
        <ele>204.42</ele>
        <time>2020-02-03T08:53:49Z</time>
      </trkpt>
      <trkpt lat="43.99859" lon="5.15105">
        <ele>204.42</ele>
        <time>2020-02-03T08:54:09Z</time>
      </trkpt>
      <trkpt lat="43.9985" lon="5.15135">
        <ele>204.42</ele>
        <time>2020-02-03T08:54:30Z</time>
      </trkpt>
      <trkpt lat="43.99846" lon="5.15153">
        <ele>204.9</ele>
        <time>2020-02-03T08:54:42Z</time>
      </trkpt>
      <trkpt lat="43.99839" lon="5.1518">
        <ele>205.38</ele>
        <time>2020-02-03T08:54:58Z</time>
      </trkpt>
      <trkpt lat="43.99839" lon="5.15195">
        <ele>205.38</ele>
        <time>2020-02-03T08:55:09Z</time>
      </trkpt>
      <trkpt lat="43.99837" lon="5.15201">
        <ele>205.38</ele>
        <time>2020-02-03T08:55:12Z</time>
      </trkpt>
      <trkpt lat="43.99837" lon="5.15207">
        <ele>205.38</ele>
        <time>2020-02-03T08:55:16Z</time>
      </trkpt>
      <trkpt lat="43.99834" lon="5.15218">
        <ele>205.38</ele>
        <time>2020-02-03T08:55:22Z</time>
      </trkpt>
      <trkpt lat="43.99836" lon="5.15245">
        <ele>205.38</ele>
        <time>2020-02-03T08:55:40Z</time>
      </trkpt>
      <trkpt lat="43.99838" lon="5.15281">
        <ele>206.34</ele>
        <time>2020-02-03T08:56:02Z</time>
      </trkpt>
      <trkpt lat="43.9984" lon="5.15311">
        <ele>206.82</ele>
        <time>2020-02-03T08:56:22Z</time>
      </trkpt>
      <trkpt lat="43.99838" lon="5.1534">
        <ele>207.3</ele>
        <time>2020-02-03T08:56:41Z</time>
      </trkpt>
      <trkpt lat="43.99837" lon="5.15356">
        <ele>207.3</ele>
        <time>2020-02-03T08:56:51Z</time>
      </trkpt>
      <trkpt lat="43.99838" lon="5.15362">
        <ele>207.78</ele>
        <time>2020-02-03T08:56:55Z</time>
      </trkpt>
      <trkpt lat="43.99835" lon="5.15395">
        <ele>207.78</ele>
        <time>2020-02-03T08:57:15Z</time>
      </trkpt>
      <trkpt lat="43.99836" lon="5.15425">
        <ele>208.26</ele>
        <time>2020-02-03T08:57:33Z</time>
      </trkpt>
      <trkpt lat="43.99835" lon="5.1544">
        <ele>208.26</ele>
        <time>2020-02-03T08:57:43Z</time>
      </trkpt>
      <trkpt lat="43.99834" lon="5.15466">
        <ele>208.74</ele>
        <time>2020-02-03T08:58:00Z</time>
      </trkpt>
      <trkpt lat="43.99835" lon="5.15475">
        <ele>208.74</ele>
        <time>2020-02-03T08:58:06Z</time>
      </trkpt>
      <trkpt lat="43.99835" lon="5.15479">
        <ele>208.74</ele>
        <time>2020-02-03T08:58:08Z</time>
      </trkpt>
      <trkpt lat="43.99833" lon="5.15509">
        <ele>208.74</ele>
        <time>2020-02-03T08:58:26Z</time>
      </trkpt>
      <trkpt lat="43.99833" lon="5.15535">
        <ele>209.22</ele>
        <time>2020-02-03T08:58:42Z</time>
      </trkpt>
      <trkpt lat="43.99832" lon="5.15562">
        <ele>209.22</ele>
        <time>2020-02-03T08:58:58Z</time>
      </trkpt>
      <trkpt lat="43.99833" lon="5.15563">
        <ele>209.22</ele>
        <time>2020-02-03T08:58:59Z</time>
      </trkpt>
      <trkpt lat="43.99832" lon="5.15568">
        <ele>209.22</ele>
        <time>2020-02-03T08:59:02Z</time>
      </trkpt>
      <trkpt lat="43.99833" lon="5.15578">
        <ele>209.22</ele>
        <time>2020-02-03T08:59:08Z</time>
      </trkpt>
      <trkpt lat="43.99832" lon="5.1559">
        <ele>209.22</ele>
        <time>2020-02-03T08:59:16Z</time>
      </trkpt>
      <trkpt lat="43.99832" lon="5.15598">
        <ele>209.22</ele>
        <time>2020-02-03T08:59:20Z</time>
      </trkpt>
      <trkpt lat="43.9983" lon="5.15623">
        <ele>209.7</ele>
        <time>2020-02-03T08:59:36Z</time>
      </trkpt>
      <trkpt lat="43.99829" lon="5.15651">
        <ele>209.7</ele>
        <time>2020-02-03T08:59:54Z</time>
      </trkpt>
      <trkpt lat="43.99825" lon="5.15677">
        <ele>210.67</ele>
        <time>2020-02-03T09:00:10Z</time>
      </trkpt>
      <trkpt lat="43.9982" lon="5.15705">
        <ele>210.19</ele>
        <time>2020-02-03T09:00:28Z</time>
      </trkpt>
      <trkpt lat="43.99815" lon="5.15721">
        <ele>210.19</ele>
        <time>2020-02-03T09:00:38Z</time>
      </trkpt>
      <trkpt lat="43.9981" lon="5.15743">
        <ele>210.19</ele>
        <time>2020-02-03T09:00:53Z</time>
      </trkpt>
      <trkpt lat="43.99811" lon="5.15769">
        <ele>210.19</ele>
        <time>2020-02-03T09:01:09Z</time>
      </trkpt>
      <trkpt lat="43.99813" lon="5.15795">
        <ele>210.67</ele>
        <time>2020-02-03T09:01:24Z</time>
      </trkpt>
      <trkpt lat="43.99816" lon="5.15826">
        <ele>211.15</ele>
        <time>2020-02-03T09:01:43Z</time>
      </trkpt>
      <trkpt lat="43.99817" lon="5.15831">
        <ele>211.15</ele>
        <time>2020-02-03T09:01:46Z</time>
      </trkpt>
      <trkpt lat="43.99819" lon="5.15845">
        <ele>211.15</ele>
        <time>2020-02-03T09:01:55Z</time>
      </trkpt>
      <trkpt lat="43.9982" lon="5.15852">
        <ele>211.15</ele>
        <time>2020-02-03T09:01:59Z</time>
      </trkpt>
      <trkpt lat="43.99822" lon="5.15877">
        <ele>211.15</ele>
        <time>2020-02-03T09:02:14Z</time>
      </trkpt>
      <trkpt lat="43.99822" lon="5.15878">
        <ele>211.63</ele>
        <time>2020-02-03T09:02:15Z</time>
      </trkpt>
      <trkpt lat="43.99825" lon="5.15905">
        <ele>211.63</ele>
        <time>2020-02-03T09:02:31Z</time>
      </trkpt>
      <trkpt lat="43.99829" lon="5.15923">
        <ele>211.63</ele>
        <time>2020-02-03T09:02:43Z</time>
      </trkpt>
      <trkpt lat="43.99833" lon="5.15932">
        <ele>211.63</ele>
        <time>2020-02-03T09:02:49Z</time>
      </trkpt>
      <trkpt lat="43.99838" lon="5.15951">
        <ele>211.63</ele>
        <time>2020-02-03T09:03:00Z</time>
      </trkpt>
      <trkpt lat="43.99838" lon="5.15954">
        <ele>211.63</ele>
        <time>2020-02-03T09:03:02Z</time>
      </trkpt>
      <trkpt lat="43.99843" lon="5.15979">
        <ele>211.63</ele>
        <time>2020-02-03T09:03:20Z</time>
      </trkpt>
      <trkpt lat="43.99844" lon="5.15981">
        <ele>211.63</ele>
        <time>2020-02-03T09:03:21Z</time>
      </trkpt>
      <trkpt lat="43.99856" lon="5.15999">
        <ele>211.63</ele>
        <time>2020-02-03T09:03:37Z</time>
      </trkpt>
      <trkpt lat="43.99859" lon="5.16001">
        <ele>211.63</ele>
        <time>2020-02-03T09:03:40Z</time>
      </trkpt>
      <trkpt lat="43.99863" lon="5.16005">
        <ele>211.63</ele>
        <time>2020-02-03T09:03:46Z</time>
      </trkpt>
      <trkpt lat="43.9988" lon="5.16021">
        <ele>211.63</ele>
        <time>2020-02-03T09:04:05Z</time>
      </trkpt>
      <trkpt lat="43.99896" lon="5.1603">
        <ele>212.11</ele>
        <time>2020-02-03T09:04:23Z</time>
      </trkpt>
      <trkpt lat="43.99894" lon="5.16028">
        <ele>211.63</ele>
        <time>2020-02-03T09:04:38Z</time>
      </trkpt>
      <trkpt lat="43.99892" lon="5.16032">
        <ele>211.63</ele>
        <time>2020-02-03T09:04:51Z</time>
      </trkpt>
      <trkpt lat="43.99895" lon="5.16029">
        <ele>211.15</ele>
        <time>2020-02-03T09:05:09Z</time>
      </trkpt>
      <trkpt lat="43.99892" lon="5.16028">
        <ele>210.67</ele>
        <time>2020-02-03T09:06:07Z</time>
      </trkpt>
      <trkpt lat="43.99889" lon="5.16028">
        <ele>211.15</ele>
        <time>2020-02-03T09:06:58Z</time>
      </trkpt>
      <trkpt lat="43.9989" lon="5.16026">
        <ele>211.15</ele>
        <time>2020-02-03T09:07:16Z</time>
      </trkpt>
      <trkpt lat="43.99893" lon="5.16032">
        <ele>211.15</ele>
        <time>2020-02-03T09:07:28Z</time>
      </trkpt>
      <trkpt lat="43.99902" lon="5.16045">
        <ele>211.15</ele>
        <time>2020-02-03T09:07:45Z</time>
      </trkpt>
      <trkpt lat="43.99923" lon="5.16052">
        <ele>211.15</ele>
        <time>2020-02-03T09:08:06Z</time>
      </trkpt>
      <trkpt lat="43.99935" lon="5.1606">
        <ele>211.15</ele>
        <time>2020-02-03T09:08:18Z</time>
      </trkpt>
      <trkpt lat="43.9995" lon="5.16063">
        <ele>210.19</ele>
        <time>2020-02-03T09:08:36Z</time>
      </trkpt>
      <trkpt lat="43.99973" lon="5.16072">
        <ele>210.67</ele>
        <time>2020-02-03T09:09:00Z</time>
      </trkpt>
      <trkpt lat="43.99988" lon="5.16088">
        <ele>211.15</ele>
        <time>2020-02-03T09:09:21Z</time>
      </trkpt>
      <trkpt lat="43.99987" lon="5.16112">
        <ele>210.67</ele>
        <time>2020-02-03T09:09:44Z</time>
      </trkpt>
      <trkpt lat="43.99985" lon="5.16123">
        <ele>211.15</ele>
        <time>2020-02-03T09:10:00Z</time>
      </trkpt>
      <trkpt lat="43.99984" lon="5.16145">
        <ele>210.67</ele>
        <time>2020-02-03T09:10:19Z</time>
      </trkpt>
      <trkpt lat="43.99979" lon="5.16157">
        <ele>211.15</ele>
        <time>2020-02-03T09:10:31Z</time>
      </trkpt>
      <trkpt lat="43.99972" lon="5.16182">
        <ele>211.15</ele>
        <time>2020-02-03T09:10:53Z</time>
      </trkpt>
      <trkpt lat="43.99971" lon="5.16197">
        <ele>211.63</ele>
        <time>2020-02-03T09:11:13Z</time>
      </trkpt>
      <trkpt lat="43.99974" lon="5.16217">
        <ele>211.63</ele>
        <time>2020-02-03T09:11:32Z</time>
      </trkpt>
      <trkpt lat="43.99971" lon="5.16231">
        <ele>211.15</ele>
        <time>2020-02-03T09:11:46Z</time>
      </trkpt>
      <trkpt lat="43.9997" lon="5.1625">
        <ele>211.15</ele>
        <time>2020-02-03T09:12:00Z</time>
      </trkpt>
      <trkpt lat="43.99966" lon="5.16267">
        <ele>211.15</ele>
        <time>2020-02-03T09:12:20Z</time>
      </trkpt>
      <trkpt lat="43.99959" lon="5.16293">
        <ele>212.11</ele>
        <time>2020-02-03T09:12:43Z</time>
      </trkpt>
      <trkpt lat="43.99953" lon="5.16311">
        <ele>211.63</ele>
        <time>2020-02-03T09:13:05Z</time>
      </trkpt>
      <trkpt lat="43.9995" lon="5.16323">
        <ele>213.07</ele>
        <time>2020-02-03T09:13:24Z</time>
      </trkpt>
      <trkpt lat="43.99953" lon="5.1632">
        <ele>212.59</ele>
        <time>2020-02-03T09:13:44Z</time>
      </trkpt>
      <trkpt lat="43.9995" lon="5.16322">
        <ele>212.11</ele>
        <time>2020-02-03T09:14:07Z</time>
      </trkpt>
      <trkpt lat="43.99951" lon="5.16331">
        <ele>212.11</ele>
        <time>2020-02-03T09:14:32Z</time>
      </trkpt>
      <trkpt lat="43.9995" lon="5.16337">
        <ele>213.07</ele>
        <time>2020-02-03T09:14:56Z</time>
      </trkpt>
      <trkpt lat="43.99943" lon="5.1635">
        <ele>214.03</ele>
        <time>2020-02-03T09:15:20Z</time>
      </trkpt>
      <trkpt lat="43.9994" lon="5.16349">
        <ele>214.03</ele>
        <time>2020-02-03T09:15:42Z</time>
      </trkpt>
      <trkpt lat="43.99935" lon="5.16367">
        <ele>214.51</ele>
        <time>2020-02-03T09:16:02Z</time>
      </trkpt>
      <trkpt lat="43.99929" lon="5.16389">
        <ele>214.03</ele>
        <time>2020-02-03T09:16:20Z</time>
      </trkpt>
      <trkpt lat="43.99927" lon="5.16402">
        <ele>214.03</ele>
        <time>2020-02-03T09:16:34Z</time>
      </trkpt>
      <trkpt lat="43.99929" lon="5.16421">
        <ele>214.03</ele>
        <time>2020-02-03T09:16:52Z</time>
      </trkpt>
      <trkpt lat="43.99921" lon="5.16439">
        <ele>214.03</ele>
        <time>2020-02-03T09:17:12Z</time>
      </trkpt>
      <trkpt lat="43.99922" lon="5.16454">
        <ele>214.03</ele>
        <time>2020-02-03T09:17:31Z</time>
      </trkpt>
      <trkpt lat="43.9992" lon="5.16466">
        <ele>214.99</ele>
        <time>2020-02-03T09:17:45Z</time>
      </trkpt>
      <trkpt lat="43.99915" lon="5.16473">
        <ele>214.99</ele>
        <time>2020-02-03T09:17:52Z</time>
      </trkpt>
      <trkpt lat="43.99906" lon="5.16489">
        <ele>215.95</ele>
        <time>2020-02-03T09:18:10Z</time>
      </trkpt>
      <trkpt lat="43.99903" lon="5.16495">
        <ele>214.99</ele>
        <time>2020-02-03T09:18:26Z</time>
      </trkpt>
      <trkpt lat="43.99889" lon="5.16511">
        <ele>214.99</ele>
        <time>2020-02-03T09:18:46Z</time>
      </trkpt>
      <trkpt lat="43.99889" lon="5.16514">
        <ele>215.47</ele>
        <time>2020-02-03T09:19:18Z</time>
      </trkpt>
      <trkpt lat="43.99894" lon="5.16511">
        <ele>215.47</ele>
        <time>2020-02-03T09:19:44Z</time>
      </trkpt>
      <trkpt lat="43.99898" lon="5.1651">
        <ele>214.51</ele>
        <time>2020-02-03T09:20:42Z</time>
      </trkpt>
      <trkpt lat="43.99901" lon="5.16509">
        <ele>214.03</ele>
        <time>2020-02-03T09:21:00Z</time>
      </trkpt>
      <trkpt lat="43.99903" lon="5.16512">
        <ele>213.07</ele>
        <time>2020-02-03T09:21:31Z</time>
      </trkpt>
      <trkpt lat="43.99905" lon="5.16512">
        <ele>213.07</ele>
        <time>2020-02-03T09:22:01Z</time>
      </trkpt>
      <trkpt lat="43.999" lon="5.16516">
        <ele>213.55</ele>
        <time>2020-02-03T09:22:29Z</time>
      </trkpt>
      <trkpt lat="43.99893" lon="5.16512">
        <ele>213.07</ele>
        <time>2020-02-03T09:22:58Z</time>
      </trkpt>
      <trkpt lat="43.99898" lon="5.16511">
        <ele>213.07</ele>
        <time>2020-02-03T09:23:31Z</time>
      </trkpt>
      <trkpt lat="43.99899" lon="5.16513">
        <ele>213.07</ele>
        <time>2020-02-03T09:24:02Z</time>
      </trkpt>
      <trkpt lat="43.99898" lon="5.16512">
        <ele>213.07</ele>
        <time>2020-02-03T09:24:35Z</time>
      </trkpt>
      <trkpt lat="43.99896" lon="5.16511">
        <ele>213.07</ele>
        <time>2020-02-03T09:25:09Z</time>
      </trkpt>
      <trkpt lat="43.99895" lon="5.16511">
        <ele>213.07</ele>
        <time>2020-02-03T09:25:39Z</time>
      </trkpt>
      <trkpt lat="43.99889" lon="5.16516">
        <ele>213.07</ele>
        <time>2020-02-03T09:26:12Z</time>
      </trkpt>
      <trkpt lat="43.9989" lon="5.16511">
        <ele>213.07</ele>
        <time>2020-02-03T09:26:48Z</time>
      </trkpt>
      <trkpt lat="43.99892" lon="5.16511">
        <ele>213.07</ele>
        <time>2020-02-03T09:27:19Z</time>
      </trkpt>
      <trkpt lat="43.99893" lon="5.16508">
        <ele>213.07</ele>
        <time>2020-02-03T09:27:54Z</time>
      </trkpt>
      <trkpt lat="43.9989" lon="5.16513">
        <ele>213.07</ele>
        <time>2020-02-03T09:28:31Z</time>
      </trkpt>
      <trkpt lat="43.99894" lon="5.16515">
        <ele>213.07</ele>
        <time>2020-02-03T09:29:06Z</time>
      </trkpt>
      <trkpt lat="43.99893" lon="5.16513">
        <ele>213.07</ele>
        <time>2020-02-03T09:29:45Z</time>
      </trkpt>
      <trkpt lat="43.99892" lon="5.16511">
        <ele>213.07</ele>
        <time>2020-02-03T09:30:16Z</time>
      </trkpt>
      <trkpt lat="43.99893" lon="5.1651">
        <ele>213.07</ele>
        <time>2020-02-03T09:30:50Z</time>
      </trkpt>
      <trkpt lat="43.99893" lon="5.16507">
        <ele>213.07</ele>
        <time>2020-02-03T09:31:12Z</time>
      </trkpt>
      <trkpt lat="43.99894" lon="5.1651">
        <ele>213.07</ele>
        <time>2020-02-03T09:31:36Z</time>
      </trkpt>
      <trkpt lat="43.99897" lon="5.16509">
        <ele>213.07</ele>
        <time>2020-02-03T09:32:00Z</time>
      </trkpt>
      <trkpt lat="43.99897" lon="5.16508">
        <ele>213.07</ele>
        <time>2020-02-03T09:32:27Z</time>
      </trkpt>
      <trkpt lat="43.9989" lon="5.16505">
        <ele>213.07</ele>
        <time>2020-02-03T09:32:54Z</time>
      </trkpt>
      <trkpt lat="43.99887" lon="5.16503">
        <ele>213.07</ele>
        <time>2020-02-03T09:33:31Z</time>
      </trkpt>
      <trkpt lat="43.99891" lon="5.16506">
        <ele>213.07</ele>
        <time>2020-02-03T09:34:00Z</time>
      </trkpt>
      <trkpt lat="43.9989" lon="5.16505">
        <ele>213.07</ele>
        <time>2020-02-03T09:34:30Z</time>
      </trkpt>
      <trkpt lat="43.99888" lon="5.16507">
        <ele>213.07</ele>
        <time>2020-02-03T09:34:51Z</time>
      </trkpt>
      <trkpt lat="43.99885" lon="5.1651">
        <ele>213.07</ele>
        <time>2020-02-03T09:35:14Z</time>
      </trkpt>
      <trkpt lat="43.99867" lon="5.16525">
        <ele>212.59</ele>
        <time>2020-02-03T09:35:36Z</time>
      </trkpt>
      <trkpt lat="43.99856" lon="5.16531">
        <ele>213.55</ele>
        <time>2020-02-03T09:35:54Z</time>
      </trkpt>
      <trkpt lat="43.99849" lon="5.16541">
        <ele>213.55</ele>
        <time>2020-02-03T09:36:12Z</time>
      </trkpt>
      <trkpt lat="43.9984" lon="5.16545">
        <ele>213.55</ele>
        <time>2020-02-03T09:36:22Z</time>
      </trkpt>
      <trkpt lat="43.99834" lon="5.16551">
        <ele>213.55</ele>
        <time>2020-02-03T09:36:34Z</time>
      </trkpt>
      <trkpt lat="43.99827" lon="5.16554">
        <ele>213.55</ele>
        <time>2020-02-03T09:36:43Z</time>
      </trkpt>
      <trkpt lat="43.99826" lon="5.16556">
        <ele>213.55</ele>
        <time>2020-02-03T09:36:45Z</time>
      </trkpt>
      <trkpt lat="43.99811" lon="5.16564">
        <ele>214.03</ele>
        <time>2020-02-03T09:36:58Z</time>
      </trkpt>
      <trkpt lat="43.9981" lon="5.1657">
        <ele>214.03</ele>
        <time>2020-02-03T09:37:14Z</time>
      </trkpt>
      <trkpt lat="43.99808" lon="5.16574">
        <ele>214.51</ele>
        <time>2020-02-03T09:37:31Z</time>
      </trkpt>
      <trkpt lat="43.99809" lon="5.1661">
        <ele>214.99</ele>
        <time>2020-02-03T09:37:58Z</time>
      </trkpt>
      <trkpt lat="43.99809" lon="5.16615">
        <ele>214.99</ele>
        <time>2020-02-03T09:38:02Z</time>
      </trkpt>
      <trkpt lat="43.99808" lon="5.1663">
        <ele>214.51</ele>
        <time>2020-02-03T09:38:19Z</time>
      </trkpt>
      <trkpt lat="43.99804" lon="5.16641">
        <ele>214.99</ele>
        <time>2020-02-03T09:38:30Z</time>
      </trkpt>
      <trkpt lat="43.99806" lon="5.16644">
        <ele>214.99</ele>
        <time>2020-02-03T09:38:34Z</time>
      </trkpt>
      <trkpt lat="43.99803" lon="5.16662">
        <ele>214.99</ele>
        <time>2020-02-03T09:38:49Z</time>
      </trkpt>
      <trkpt lat="43.99808" lon="5.16675">
        <ele>214.99</ele>
        <time>2020-02-03T09:39:07Z</time>
      </trkpt>
      <trkpt lat="43.99807" lon="5.16675">
        <ele>214.99</ele>
        <time>2020-02-03T09:39:16Z</time>
      </trkpt>
      <trkpt lat="43.99802" lon="5.16676">
        <ele>214.99</ele>
        <time>2020-02-03T09:39:20Z</time>
      </trkpt>
      <trkpt lat="43.99794" lon="5.16685">
        <ele>214.99</ele>
        <time>2020-02-03T09:39:34Z</time>
      </trkpt>
      <trkpt lat="43.99789" lon="5.167">
        <ele>214.99</ele>
        <time>2020-02-03T09:39:45Z</time>
      </trkpt>
      <trkpt lat="43.99795" lon="5.16711">
        <ele>214.99</ele>
        <time>2020-02-03T09:40:01Z</time>
      </trkpt>
      <trkpt lat="43.99807" lon="5.16738">
        <ele>214.99</ele>
        <time>2020-02-03T09:40:16Z</time>
      </trkpt>
      <trkpt lat="43.99816" lon="5.16766">
        <ele>215.47</ele>
        <time>2020-02-03T09:40:37Z</time>
      </trkpt>
      <trkpt lat="43.99825" lon="5.16784">
        <ele>215.95</ele>
        <time>2020-02-03T09:40:53Z</time>
      </trkpt>
      <trkpt lat="43.99837" lon="5.16791">
        <ele>215.47</ele>
        <time>2020-02-03T09:41:06Z</time>
      </trkpt>
      <trkpt lat="43.99832" lon="5.16796">
        <ele>215.47</ele>
        <time>2020-02-03T09:41:11Z</time>
      </trkpt>
      <trkpt lat="43.99837" lon="5.16807">
        <ele>214.99</ele>
        <time>2020-02-03T09:41:27Z</time>
      </trkpt>
      <trkpt lat="43.99844" lon="5.16809">
        <ele>214.99</ele>
        <time>2020-02-03T09:41:32Z</time>
      </trkpt>
      <trkpt lat="43.99846" lon="5.16819">
        <ele>215.47</ele>
        <time>2020-02-03T09:41:41Z</time>
      </trkpt>
      <trkpt lat="43.99847" lon="5.1684">
        <ele>215.95</ele>
        <time>2020-02-03T09:41:58Z</time>
      </trkpt>
      <trkpt lat="43.99849" lon="5.16861">
        <ele>215.47</ele>
        <time>2020-02-03T09:42:15Z</time>
      </trkpt>
      <trkpt lat="43.99855" lon="5.16875">
        <ele>215.47</ele>
        <time>2020-02-03T09:42:28Z</time>
      </trkpt>
      <trkpt lat="43.99853" lon="5.16894">
        <ele>215.95</ele>
        <time>2020-02-03T09:42:43Z</time>
      </trkpt>
      <trkpt lat="43.99857" lon="5.16911">
        <ele>215.95</ele>
        <time>2020-02-03T09:43:01Z</time>
      </trkpt>
      <trkpt lat="43.99855" lon="5.16924">
        <ele>216.43</ele>
        <time>2020-02-03T09:43:21Z</time>
      </trkpt>
      <trkpt lat="43.99848" lon="5.16944">
        <ele>216.43</ele>
        <time>2020-02-03T09:43:40Z</time>
      </trkpt>
      <trkpt lat="43.9984" lon="5.16967">
        <ele>216.43</ele>
        <time>2020-02-03T09:43:58Z</time>
      </trkpt>
      <trkpt lat="43.9984" lon="5.16968">
        <ele>216.43</ele>
        <time>2020-02-03T09:44:00Z</time>
      </trkpt>
      <trkpt lat="43.9985" lon="5.16992">
        <ele>216.43</ele>
        <time>2020-02-03T09:44:20Z</time>
      </trkpt>
      <trkpt lat="43.99842" lon="5.17011">
        <ele>216.91</ele>
        <time>2020-02-03T09:44:33Z</time>
      </trkpt>
      <trkpt lat="43.99846" lon="5.17028">
        <ele>216.91</ele>
        <time>2020-02-03T09:44:53Z</time>
      </trkpt>
      <trkpt lat="43.99852" lon="5.17038">
        <ele>216.91</ele>
        <time>2020-02-03T09:45:07Z</time>
      </trkpt>
      <trkpt lat="43.99855" lon="5.17051">
        <ele>216.91</ele>
        <time>2020-02-03T09:45:20Z</time>
      </trkpt>
      <trkpt lat="43.99855" lon="5.17059">
        <ele>217.4</ele>
        <time>2020-02-03T09:45:39Z</time>
      </trkpt>
      <trkpt lat="43.99853" lon="5.17069">
        <ele>217.4</ele>
        <time>2020-02-03T09:45:59Z</time>
      </trkpt>
      <trkpt lat="43.99859" lon="5.17071">
        <ele>217.4</ele>
        <time>2020-02-03T09:46:18Z</time>
      </trkpt>
      <trkpt lat="43.99858" lon="5.17075">
        <ele>217.4</ele>
        <time>2020-02-03T09:46:37Z</time>
      </trkpt>
      <trkpt lat="43.99859" lon="5.17073">
        <ele>217.4</ele>
        <time>2020-02-03T09:46:58Z</time>
      </trkpt>
      <trkpt lat="43.99857" lon="5.17071">
        <ele>217.4</ele>
        <time>2020-02-03T09:47:20Z</time>
      </trkpt>
      <trkpt lat="43.99858" lon="5.17068">
        <ele>217.4</ele>
        <time>2020-02-03T09:47:49Z</time>
      </trkpt>
      <trkpt lat="43.99857" lon="5.17073">
        <ele>217.4</ele>
        <time>2020-02-03T09:48:17Z</time>
      </trkpt>
      <trkpt lat="43.99864" lon="5.17086">
        <ele>217.4</ele>
        <time>2020-02-03T09:48:42Z</time>
      </trkpt>
      <trkpt lat="43.99868" lon="5.171">
        <ele>218.84</ele>
        <time>2020-02-03T09:48:51Z</time>
      </trkpt>
      <trkpt lat="43.9987" lon="5.17102">
        <ele>218.84</ele>
        <time>2020-02-03T09:48:53Z</time>
      </trkpt>
      <trkpt lat="43.99873" lon="5.17105">
        <ele>218.84</ele>
        <time>2020-02-03T09:48:56Z</time>
      </trkpt>
      <trkpt lat="43.99886" lon="5.17119">
        <ele>219.32</ele>
        <time>2020-02-03T09:49:11Z</time>
      </trkpt>
      <trkpt lat="43.99896" lon="5.17128">
        <ele>219.8</ele>
        <time>2020-02-03T09:49:26Z</time>
      </trkpt>
      <trkpt lat="43.999" lon="5.1714">
        <ele>219.8</ele>
        <time>2020-02-03T09:49:43Z</time>
      </trkpt>
      <trkpt lat="43.999" lon="5.17157">
        <ele>220.28</ele>
        <time>2020-02-03T09:49:57Z</time>
      </trkpt>
      <trkpt lat="43.99904" lon="5.1717">
        <ele>220.28</ele>
        <time>2020-02-03T09:50:11Z</time>
      </trkpt>
      <trkpt lat="43.99905" lon="5.17192">
        <ele>219.8</ele>
        <time>2020-02-03T09:50:28Z</time>
      </trkpt>
      <trkpt lat="43.99905" lon="5.1721">
        <ele>219.8</ele>
        <time>2020-02-03T09:50:46Z</time>
      </trkpt>
      <trkpt lat="43.99901" lon="5.17236">
        <ele>219.8</ele>
        <time>2020-02-03T09:51:06Z</time>
      </trkpt>
      <trkpt lat="43.99896" lon="5.17257">
        <ele>219.8</ele>
        <time>2020-02-03T09:51:21Z</time>
      </trkpt>
      <trkpt lat="43.99896" lon="5.17262">
        <ele>219.8</ele>
        <time>2020-02-03T09:51:24Z</time>
      </trkpt>
      <trkpt lat="43.99891" lon="5.17278">
        <ele>219.8</ele>
        <time>2020-02-03T09:51:40Z</time>
      </trkpt>
      <trkpt lat="43.99891" lon="5.17278">
        <ele>219.8</ele>
        <time>2020-02-03T09:51:41Z</time>
      </trkpt>
      <trkpt lat="43.99893" lon="5.17294">
        <ele>219.8</ele>
        <time>2020-02-03T09:51:56Z</time>
      </trkpt>
      <trkpt lat="43.99896" lon="5.17299">
        <ele>219.8</ele>
        <time>2020-02-03T09:52:00Z</time>
      </trkpt>
      <trkpt lat="43.99896" lon="5.17309">
        <ele>219.8</ele>
        <time>2020-02-03T09:52:08Z</time>
      </trkpt>
      <trkpt lat="43.99892" lon="5.17329">
        <ele>219.8</ele>
        <time>2020-02-03T09:52:22Z</time>
      </trkpt>
      <trkpt lat="43.99887" lon="5.17348">
        <ele>219.8</ele>
        <time>2020-02-03T09:52:38Z</time>
      </trkpt>
      <trkpt lat="43.99877" lon="5.17356">
        <ele>219.8</ele>
        <time>2020-02-03T09:52:54Z</time>
      </trkpt>
      <trkpt lat="43.99866" lon="5.17372">
        <ele>219.8</ele>
        <time>2020-02-03T09:53:12Z</time>
      </trkpt>
      <trkpt lat="43.99868" lon="5.17378">
        <ele>221.24</ele>
        <time>2020-02-03T09:53:18Z</time>
      </trkpt>
      <trkpt lat="43.99871" lon="5.17401">
        <ele>222.2</ele>
        <time>2020-02-03T09:53:35Z</time>
      </trkpt>
      <trkpt lat="43.99871" lon="5.17404">
        <ele>222.2</ele>
        <time>2020-02-03T09:53:38Z</time>
      </trkpt>
      <trkpt lat="43.99878" lon="5.17417">
        <ele>222.68</ele>
        <time>2020-02-03T09:53:48Z</time>
      </trkpt>
      <trkpt lat="43.99885" lon="5.17429">
        <ele>222.68</ele>
        <time>2020-02-03T09:54:03Z</time>
      </trkpt>
      <trkpt lat="43.99892" lon="5.17448">
        <ele>222.68</ele>
        <time>2020-02-03T09:54:14Z</time>
      </trkpt>
      <trkpt lat="43.99894" lon="5.1745">
        <ele>222.68</ele>
        <time>2020-02-03T09:54:16Z</time>
      </trkpt>
      <trkpt lat="43.999" lon="5.17467">
        <ele>223.16</ele>
        <time>2020-02-03T09:54:27Z</time>
      </trkpt>
      <trkpt lat="43.99903" lon="5.17479">
        <ele>223.16</ele>
        <time>2020-02-03T09:54:44Z</time>
      </trkpt>
      <trkpt lat="43.99911" lon="5.1749">
        <ele>223.16</ele>
        <time>2020-02-03T09:55:03Z</time>
      </trkpt>
      <trkpt lat="43.99919" lon="5.17496">
        <ele>223.64</ele>
        <time>2020-02-03T09:55:25Z</time>
      </trkpt>
      <trkpt lat="43.99924" lon="5.17503">
        <ele>223.64</ele>
        <time>2020-02-03T09:55:44Z</time>
      </trkpt>
      <trkpt lat="43.99916" lon="5.175">
        <ele>223.64</ele>
        <time>2020-02-03T09:56:05Z</time>
      </trkpt>
      <trkpt lat="43.99913" lon="5.175">
        <ele>223.16</ele>
        <time>2020-02-03T09:56:11Z</time>
      </trkpt>
      <trkpt lat="43.99906" lon="5.17493">
        <ele>223.64</ele>
        <time>2020-02-03T09:56:41Z</time>
      </trkpt>
      <trkpt lat="43.99911" lon="5.17496">
        <ele>224.12</ele>
        <time>2020-02-03T09:56:57Z</time>
      </trkpt>
      <trkpt lat="43.99913" lon="5.17492">
        <ele>224.12</ele>
        <time>2020-02-03T09:57:21Z</time>
      </trkpt>
      <trkpt lat="43.99917" lon="5.17487">
        <ele>224.12</ele>
        <time>2020-02-03T09:57:45Z</time>
      </trkpt>
      <trkpt lat="43.99917" lon="5.17485">
        <ele>224.12</ele>
        <time>2020-02-03T09:58:11Z</time>
      </trkpt>
      <trkpt lat="43.99927" lon="5.17497">
        <ele>224.12</ele>
        <time>2020-02-03T09:58:31Z</time>
      </trkpt>
      <trkpt lat="43.9993" lon="5.17502">
        <ele>224.12</ele>
        <time>2020-02-03T09:58:34Z</time>
      </trkpt>
      <trkpt lat="43.99933" lon="5.17512">
        <ele>224.12</ele>
        <time>2020-02-03T09:58:44Z</time>
      </trkpt>
      <trkpt lat="43.99941" lon="5.17518">
        <ele>224.12</ele>
        <time>2020-02-03T09:58:51Z</time>
      </trkpt>
      <trkpt lat="43.99944" lon="5.17521">
        <ele>224.12</ele>
        <time>2020-02-03T09:58:54Z</time>
      </trkpt>
      <trkpt lat="43.99952" lon="5.17524">
        <ele>224.61</ele>
        <time>2020-02-03T09:59:06Z</time>
      </trkpt>
      <trkpt lat="43.99974" lon="5.17523">
        <ele>225.09</ele>
        <time>2020-02-03T09:59:28Z</time>
      </trkpt>
      <trkpt lat="43.99976" lon="5.17524">
        <ele>225.09</ele>
        <time>2020-02-03T09:59:30Z</time>
      </trkpt>
      <trkpt lat="43.9999" lon="5.17525">
        <ele>225.57</ele>
        <time>2020-02-03T09:59:43Z</time>
      </trkpt>
      <trkpt lat="43.99994" lon="5.17525">
        <ele>225.57</ele>
        <time>2020-02-03T09:59:47Z</time>
      </trkpt>
      <trkpt lat="44.00001" lon="5.17527">
        <ele>225.57</ele>
        <time>2020-02-03T09:59:53Z</time>
      </trkpt>
      <trkpt lat="44.00008" lon="5.17528">
        <ele>225.09</ele>
        <time>2020-02-03T09:59:56Z</time>
      </trkpt>
      <trkpt lat="44.00019" lon="5.17527">
        <ele>225.09</ele>
        <time>2020-02-03T10:00:03Z</time>
      </trkpt>
      <trkpt lat="44.00023" lon="5.17528">
        <ele>225.09</ele>
        <time>2020-02-03T10:00:07Z</time>
      </trkpt>
      <trkpt lat="44.00027" lon="5.1754">
        <ele>225.57</ele>
        <time>2020-02-03T10:00:23Z</time>
      </trkpt>
      <trkpt lat="44.00032" lon="5.17545">
        <ele>226.05</ele>
        <time>2020-02-03T10:00:34Z</time>
      </trkpt>
      <trkpt lat="44.00042" lon="5.17558">
        <ele>226.53</ele>
        <time>2020-02-03T10:00:46Z</time>
      </trkpt>
      <trkpt lat="44.00052" lon="5.17565">
        <ele>226.05</ele>
        <time>2020-02-03T10:01:01Z</time>
      </trkpt>
      <trkpt lat="44.00052" lon="5.17568">
        <ele>226.05</ele>
        <time>2020-02-03T10:01:04Z</time>
      </trkpt>
      <trkpt lat="44.00059" lon="5.17571">
        <ele>225.57</ele>
        <time>2020-02-03T10:01:18Z</time>
      </trkpt>
      <trkpt lat="44.00081" lon="5.17571">
        <ele>226.53</ele>
        <time>2020-02-03T10:01:34Z</time>
      </trkpt>
      <trkpt lat="44.001" lon="5.17571">
        <ele>226.05</ele>
        <time>2020-02-03T10:01:54Z</time>
      </trkpt>
      <trkpt lat="44.00118" lon="5.17568">
        <ele>226.53</ele>
        <time>2020-02-03T10:02:15Z</time>
      </trkpt>
      <trkpt lat="44.00141" lon="5.17571">
        <ele>227.01</ele>
        <time>2020-02-03T10:02:34Z</time>
      </trkpt>
      <trkpt lat="44.00161" lon="5.17577">
        <ele>227.49</ele>
        <time>2020-02-03T10:02:59Z</time>
      </trkpt>
      <trkpt lat="44.00173" lon="5.17576">
        <ele>227.49</ele>
        <time>2020-02-03T10:03:18Z</time>
      </trkpt>
      <trkpt lat="44.00173" lon="5.17573">
        <ele>227.01</ele>
        <time>2020-02-03T10:03:49Z</time>
      </trkpt>
      <trkpt lat="44.00171" lon="5.17576">
        <ele>227.01</ele>
        <time>2020-02-03T10:04:16Z</time>
      </trkpt>
      <trkpt lat="44.0017" lon="5.17574">
        <ele>227.01</ele>
        <time>2020-02-03T10:04:38Z</time>
      </trkpt>
      <trkpt lat="44.0017" lon="5.17576">
        <ele>227.01</ele>
        <time>2020-02-03T10:05:05Z</time>
      </trkpt>
      <trkpt lat="44.00167" lon="5.1758">
        <ele>227.01</ele>
        <time>2020-02-03T10:05:36Z</time>
      </trkpt>
      <trkpt lat="44.0017" lon="5.17581">
        <ele>227.01</ele>
        <time>2020-02-03T10:06:10Z</time>
      </trkpt>
      <trkpt lat="44.00168" lon="5.17579">
        <ele>227.01</ele>
        <time>2020-02-03T10:06:32Z</time>
      </trkpt>
      <trkpt lat="44.0017" lon="5.17584">
        <ele>227.01</ele>
        <time>2020-02-03T10:07:02Z</time>
      </trkpt>
      <trkpt lat="44.00185" lon="5.17578">
        <ele>227.01</ele>
        <time>2020-02-03T10:07:26Z</time>
      </trkpt>
      <trkpt lat="44.00192" lon="5.17576">
        <ele>228.45</ele>
        <time>2020-02-03T10:07:31Z</time>
      </trkpt>
      <trkpt lat="44.00211" lon="5.17567">
        <ele>230.85</ele>
        <time>2020-02-03T10:07:49Z</time>
      </trkpt>
      <trkpt lat="44.00223" lon="5.17567">
        <ele>231.33</ele>
        <time>2020-02-03T10:08:00Z</time>
      </trkpt>
      <trkpt lat="44.00234" lon="5.17573">
        <ele>231.33</ele>
        <time>2020-02-03T10:08:09Z</time>
      </trkpt>
      <trkpt lat="44.00239" lon="5.17602">
        <ele>231.33</ele>
        <time>2020-02-03T10:08:28Z</time>
      </trkpt>
      <trkpt lat="44.00241" lon="5.17621">
        <ele>231.81</ele>
        <time>2020-02-03T10:08:45Z</time>
      </trkpt>
      <trkpt lat="44.00239" lon="5.17645">
        <ele>231.81</ele>
        <time>2020-02-03T10:09:02Z</time>
      </trkpt>
      <trkpt lat="44.00239" lon="5.17649">
        <ele>231.33</ele>
        <time>2020-02-03T10:09:06Z</time>
      </trkpt>
      <trkpt lat="44.00237" lon="5.17672">
        <ele>230.85</ele>
        <time>2020-02-03T10:09:21Z</time>
      </trkpt>
      <trkpt lat="44.00236" lon="5.17675">
        <ele>230.85</ele>
        <time>2020-02-03T10:09:23Z</time>
      </trkpt>
      <trkpt lat="44.0023" lon="5.17698">
        <ele>231.33</ele>
        <time>2020-02-03T10:09:38Z</time>
      </trkpt>
      <trkpt lat="44.00231" lon="5.17717">
        <ele>230.85</ele>
        <time>2020-02-03T10:09:52Z</time>
      </trkpt>
      <trkpt lat="44.00235" lon="5.1773">
        <ele>230.85</ele>
        <time>2020-02-03T10:10:11Z</time>
      </trkpt>
      <trkpt lat="44.00237" lon="5.17757">
        <ele>231.33</ele>
        <time>2020-02-03T10:10:30Z</time>
      </trkpt>
      <trkpt lat="44.00243" lon="5.17776">
        <ele>231.81</ele>
        <time>2020-02-03T10:10:43Z</time>
      </trkpt>
      <trkpt lat="44.00232" lon="5.17789">
        <ele>230.85</ele>
        <time>2020-02-03T10:11:01Z</time>
      </trkpt>
      <trkpt lat="44.0023" lon="5.17796">
        <ele>232.78</ele>
        <time>2020-02-03T10:11:17Z</time>
      </trkpt>
      <trkpt lat="44.00233" lon="5.17812">
        <ele>232.78</ele>
        <time>2020-02-03T10:11:35Z</time>
      </trkpt>
      <trkpt lat="44.00236" lon="5.17834">
        <ele>232.78</ele>
        <time>2020-02-03T10:11:51Z</time>
      </trkpt>
      <trkpt lat="44.00237" lon="5.17836">
        <ele>232.78</ele>
        <time>2020-02-03T10:11:53Z</time>
      </trkpt>
      <trkpt lat="44.00243" lon="5.17856">
        <ele>232.3</ele>
        <time>2020-02-03T10:12:08Z</time>
      </trkpt>
      <trkpt lat="44.00252" lon="5.17872">
        <ele>231.33</ele>
        <time>2020-02-03T10:12:25Z</time>
      </trkpt>
      <trkpt lat="44.00248" lon="5.17874">
        <ele>232.78</ele>
        <time>2020-02-03T10:12:46Z</time>
      </trkpt>
      <trkpt lat="44.00253" lon="5.17899">
        <ele>232.78</ele>
        <time>2020-02-03T10:13:07Z</time>
      </trkpt>
      <trkpt lat="44.00265" lon="5.17923">
        <ele>232.78</ele>
        <time>2020-02-03T10:13:27Z</time>
      </trkpt>
      <trkpt lat="44.00267" lon="5.17928">
        <ele>234.7</ele>
        <time>2020-02-03T10:13:32Z</time>
      </trkpt>
      <trkpt lat="44.00273" lon="5.1795">
        <ele>235.18</ele>
        <time>2020-02-03T10:13:48Z</time>
      </trkpt>
      <trkpt lat="44.00278" lon="5.1797">
        <ele>235.18</ele>
        <time>2020-02-03T10:14:04Z</time>
      </trkpt>
      <trkpt lat="44.00281" lon="5.1799">
        <ele>235.66</ele>
        <time>2020-02-03T10:14:17Z</time>
      </trkpt>
      <trkpt lat="44.00285" lon="5.1801">
        <ele>237.1</ele>
        <time>2020-02-03T10:14:36Z</time>
      </trkpt>
      <trkpt lat="44.00292" lon="5.18038">
        <ele>239.02</ele>
        <time>2020-02-03T10:14:58Z</time>
      </trkpt>
      <trkpt lat="44.00293" lon="5.1804">
        <ele>239.02</ele>
        <time>2020-02-03T10:15:17Z</time>
      </trkpt>
      <trkpt lat="44.003" lon="5.18038">
        <ele>239.02</ele>
        <time>2020-02-03T10:15:53Z</time>
      </trkpt>
      <trkpt lat="44.00295" lon="5.18037">
        <ele>239.51</ele>
        <time>2020-02-03T10:16:21Z</time>
      </trkpt>
      <trkpt lat="44.0029" lon="5.18036">
        <ele>239.51</ele>
        <time>2020-02-03T10:16:53Z</time>
      </trkpt>
      <trkpt lat="44.00291" lon="5.18038">
        <ele>239.51</ele>
        <time>2020-02-03T10:16:57Z</time>
      </trkpt>
      <trkpt lat="44.00298" lon="5.18066">
        <ele>239.02</ele>
        <time>2020-02-03T10:17:16Z</time>
      </trkpt>
      <trkpt lat="44.003" lon="5.18087">
        <ele>239.99</ele>
        <time>2020-02-03T10:17:32Z</time>
      </trkpt>
      <trkpt lat="44.00299" lon="5.18102">
        <ele>240.95</ele>
        <time>2020-02-03T10:17:45Z</time>
      </trkpt>
      <trkpt lat="44.00294" lon="5.18117">
        <ele>242.39</ele>
        <time>2020-02-03T10:18:06Z</time>
      </trkpt>
      <trkpt lat="44.00286" lon="5.18137">
        <ele>244.79</ele>
        <time>2020-02-03T10:18:26Z</time>
      </trkpt>
      <trkpt lat="44.00285" lon="5.18159">
        <ele>246.72</ele>
        <time>2020-02-03T10:18:47Z</time>
      </trkpt>
      <trkpt lat="44.00284" lon="5.18179">
        <ele>247.68</ele>
        <time>2020-02-03T10:19:07Z</time>
      </trkpt>
      <trkpt lat="44.00278" lon="5.18198">
        <ele>249.6</ele>
        <time>2020-02-03T10:19:27Z</time>
      </trkpt>
      <trkpt lat="44.00267" lon="5.18205">
        <ele>252</ele>
        <time>2020-02-03T10:19:47Z</time>
      </trkpt>
      <trkpt lat="44.00257" lon="5.18216">
        <ele>252.96</ele>
        <time>2020-02-03T10:20:06Z</time>
      </trkpt>
      <trkpt lat="44.00241" lon="5.18221">
        <ele>254.89</ele>
        <time>2020-02-03T10:20:25Z</time>
      </trkpt>
      <trkpt lat="44.00228" lon="5.18234">
        <ele>256.33</ele>
        <time>2020-02-03T10:20:42Z</time>
      </trkpt>
      <trkpt lat="44.00216" lon="5.18242">
        <ele>258.73</ele>
        <time>2020-02-03T10:21:00Z</time>
      </trkpt>
      <trkpt lat="44.00203" lon="5.18247">
        <ele>260.65</ele>
        <time>2020-02-03T10:21:20Z</time>
      </trkpt>
      <trkpt lat="44.00192" lon="5.18252">
        <ele>264.02</ele>
        <time>2020-02-03T10:21:35Z</time>
      </trkpt>
      <trkpt lat="44.00181" lon="5.18259">
        <ele>265.94</ele>
        <time>2020-02-03T10:21:53Z</time>
      </trkpt>
      <trkpt lat="44.00172" lon="5.18265">
        <ele>268.83</ele>
        <time>2020-02-03T10:22:14Z</time>
      </trkpt>
      <trkpt lat="44.00165" lon="5.18271">
        <ele>270.75</ele>
        <time>2020-02-03T10:22:34Z</time>
      </trkpt>
      <trkpt lat="44.00166" lon="5.18272">
        <ele>270.75</ele>
        <time>2020-02-03T10:23:23Z</time>
      </trkpt>
      <trkpt lat="44.00172" lon="5.18274">
        <ele>270.75</ele>
        <time>2020-02-03T10:24:14Z</time>
      </trkpt>
      <trkpt lat="44.00169" lon="5.18272">
        <ele>270.75</ele>
        <time>2020-02-03T10:24:51Z</time>
      </trkpt>
      <trkpt lat="44.0017" lon="5.18276">
        <ele>270.75</ele>
        <time>2020-02-03T10:25:22Z</time>
      </trkpt>
      <trkpt lat="44.00169" lon="5.1828">
        <ele>270.75</ele>
        <time>2020-02-03T10:25:42Z</time>
      </trkpt>
      <trkpt lat="44.00168" lon="5.1828">
        <ele>270.75</ele>
        <time>2020-02-03T10:26:05Z</time>
      </trkpt>
      <trkpt lat="44.00161" lon="5.18284">
        <ele>270.75</ele>
        <time>2020-02-03T10:26:27Z</time>
      </trkpt>
      <trkpt lat="44.00147" lon="5.18282">
        <ele>270.75</ele>
        <time>2020-02-03T10:26:45Z</time>
      </trkpt>
      <trkpt lat="44.00133" lon="5.1828">
        <ele>270.75</ele>
        <time>2020-02-03T10:27:03Z</time>
      </trkpt>
      <trkpt lat="44.0013" lon="5.18279">
        <ele>273.63</ele>
        <time>2020-02-03T10:27:05Z</time>
      </trkpt>
      <trkpt lat="44.00122" lon="5.18273">
        <ele>278.92</ele>
        <time>2020-02-03T10:27:13Z</time>
      </trkpt>
      <trkpt lat="44.00101" lon="5.18269">
        <ele>280.84</ele>
        <time>2020-02-03T10:27:31Z</time>
      </trkpt>
      <trkpt lat="44.00089" lon="5.18285">
        <ele>283.25</ele>
        <time>2020-02-03T10:27:50Z</time>
      </trkpt>
      <trkpt lat="44.00082" lon="5.18302">
        <ele>286.13</ele>
        <time>2020-02-03T10:28:09Z</time>
      </trkpt>
      <trkpt lat="44.00072" lon="5.18305">
        <ele>288.05</ele>
        <time>2020-02-03T10:28:26Z</time>
      </trkpt>
      <trkpt lat="44.00057" lon="5.18309">
        <ele>289.49</ele>
        <time>2020-02-03T10:28:43Z</time>
      </trkpt>
      <trkpt lat="44.00048" lon="5.18321">
        <ele>292.38</ele>
        <time>2020-02-03T10:29:03Z</time>
      </trkpt>
      <trkpt lat="44.0004" lon="5.1834">
        <ele>294.78</ele>
        <time>2020-02-03T10:29:22Z</time>
      </trkpt>
      <trkpt lat="44.00029" lon="5.18355">
        <ele>297.67</ele>
        <time>2020-02-03T10:29:42Z</time>
      </trkpt>
      <trkpt lat="44.00024" lon="5.1836">
        <ele>300.07</ele>
        <time>2020-02-03T10:30:00Z</time>
      </trkpt>
      <trkpt lat="44.00016" lon="5.18361">
        <ele>301.99</ele>
        <time>2020-02-03T10:30:18Z</time>
      </trkpt>
      <trkpt lat="44.00004" lon="5.1836">
        <ele>305.36</ele>
        <time>2020-02-03T10:30:33Z</time>
      </trkpt>
      <trkpt lat="43.99995" lon="5.18363">
        <ele>308.24</ele>
        <time>2020-02-03T10:30:48Z</time>
      </trkpt>
      <trkpt lat="43.99989" lon="5.18365">
        <ele>311.6</ele>
        <time>2020-02-03T10:31:01Z</time>
      </trkpt>
      <trkpt lat="43.99979" lon="5.18367">
        <ele>314.49</ele>
        <time>2020-02-03T10:31:19Z</time>
      </trkpt>
      <trkpt lat="43.99973" lon="5.18368">
        <ele>317.85</ele>
        <time>2020-02-03T10:31:32Z</time>
      </trkpt>
      <trkpt lat="43.99967" lon="5.1837">
        <ele>320.74</ele>
        <time>2020-02-03T10:31:46Z</time>
      </trkpt>
      <trkpt lat="43.99957" lon="5.18377">
        <ele>323.62</ele>
        <time>2020-02-03T10:32:02Z</time>
      </trkpt>
      <trkpt lat="43.99956" lon="5.18381">
        <ele>324.58</ele>
        <time>2020-02-03T10:32:24Z</time>
      </trkpt>
      <trkpt lat="43.99959" lon="5.18383">
        <ele>324.58</ele>
        <time>2020-02-03T10:32:54Z</time>
      </trkpt>
      <trkpt lat="43.99955" lon="5.18378">
        <ele>324.1</ele>
        <time>2020-02-03T10:33:18Z</time>
      </trkpt>
      <trkpt lat="43.99951" lon="5.18379">
        <ele>323.62</ele>
        <time>2020-02-03T10:33:50Z</time>
      </trkpt>
      <trkpt lat="43.9995" lon="5.18379">
        <ele>324.58</ele>
        <time>2020-02-03T10:34:19Z</time>
      </trkpt>
      <trkpt lat="43.99956" lon="5.18378">
        <ele>323.62</ele>
        <time>2020-02-03T10:34:57Z</time>
      </trkpt>
      <trkpt lat="43.99958" lon="5.18379">
        <ele>324.1</ele>
        <time>2020-02-03T10:35:28Z</time>
      </trkpt>
      <trkpt lat="43.99961" lon="5.18377">
        <ele>324.58</ele>
        <time>2020-02-03T10:36:01Z</time>
      </trkpt>
      <trkpt lat="43.99962" lon="5.18381">
        <ele>323.62</ele>
        <time>2020-02-03T10:36:32Z</time>
      </trkpt>
      <trkpt lat="43.99958" lon="5.18382">
        <ele>323.62</ele>
        <time>2020-02-03T10:37:06Z</time>
      </trkpt>
      <trkpt lat="43.99959" lon="5.18381">
        <ele>323.62</ele>
        <time>2020-02-03T10:37:40Z</time>
      </trkpt>
      <trkpt lat="43.99961" lon="5.18379">
        <ele>323.62</ele>
        <time>2020-02-03T10:38:14Z</time>
      </trkpt>
      <trkpt lat="43.99956" lon="5.18379">
        <ele>323.62</ele>
        <time>2020-02-03T10:38:23Z</time>
      </trkpt>
      <trkpt lat="43.99942" lon="5.18378">
        <ele>326.99</ele>
        <time>2020-02-03T10:38:34Z</time>
      </trkpt>
      <trkpt lat="43.99929" lon="5.18383">
        <ele>327.47</ele>
        <time>2020-02-03T10:38:57Z</time>
      </trkpt>
      <trkpt lat="43.99914" lon="5.18387">
        <ele>327.95</ele>
        <time>2020-02-03T10:39:13Z</time>
      </trkpt>
      <trkpt lat="43.99905" lon="5.1839">
        <ele>328.91</ele>
        <time>2020-02-03T10:39:32Z</time>
      </trkpt>
      <trkpt lat="43.99902" lon="5.18393">
        <ele>330.83</ele>
        <time>2020-02-03T10:39:53Z</time>
      </trkpt>
      <trkpt lat="43.99895" lon="5.18392">
        <ele>331.31</ele>
        <time>2020-02-03T10:40:05Z</time>
      </trkpt>
      <trkpt lat="43.99885" lon="5.18392">
        <ele>334.68</ele>
        <time>2020-02-03T10:40:19Z</time>
      </trkpt>
      <trkpt lat="43.99871" lon="5.18394">
        <ele>338.04</ele>
        <time>2020-02-03T10:40:36Z</time>
      </trkpt>
      <trkpt lat="43.99863" lon="5.184">
        <ele>340.92</ele>
        <time>2020-02-03T10:40:55Z</time>
      </trkpt>
      <trkpt lat="43.99861" lon="5.18405">
        <ele>343.81</ele>
        <time>2020-02-03T10:41:07Z</time>
      </trkpt>
      <trkpt lat="43.99856" lon="5.18406">
        <ele>347.17</ele>
        <time>2020-02-03T10:41:20Z</time>
      </trkpt>
      <trkpt lat="43.99853" lon="5.18407">
        <ele>349.58</ele>
        <time>2020-02-03T10:41:40Z</time>
      </trkpt>
      <trkpt lat="43.99849" lon="5.18412">
        <ele>348.62</ele>
        <time>2020-02-03T10:42:00Z</time>
      </trkpt>
      <trkpt lat="43.9985" lon="5.1841">
        <ele>348.62</ele>
        <time>2020-02-03T10:42:18Z</time>
      </trkpt>
      <trkpt lat="43.99852" lon="5.18406">
        <ele>348.13</ele>
        <time>2020-02-03T10:42:36Z</time>
      </trkpt>
      <trkpt lat="43.99843" lon="5.18403">
        <ele>345.25</ele>
        <time>2020-02-03T10:42:56Z</time>
      </trkpt>
      <trkpt lat="43.9985" lon="5.18395">
        <ele>345.73</ele>
        <time>2020-02-03T10:43:12Z</time>
      </trkpt>
      <trkpt lat="43.99852" lon="5.18394">
        <ele>345.25</ele>
        <time>2020-02-03T10:43:14Z</time>
      </trkpt>
      <trkpt lat="43.9985" lon="5.18399">
        <ele>344.77</ele>
        <time>2020-02-03T10:43:32Z</time>
      </trkpt>
      <trkpt lat="43.99843" lon="5.18406">
        <ele>347.17</ele>
        <time>2020-02-03T10:43:51Z</time>
      </trkpt>
      <trkpt lat="43.99839" lon="5.18413">
        <ele>349.58</ele>
        <time>2020-02-03T10:44:11Z</time>
      </trkpt>
      <trkpt lat="43.99832" lon="5.1842">
        <ele>350.54</ele>
        <time>2020-02-03T10:44:25Z</time>
      </trkpt>
      <trkpt lat="43.99831" lon="5.18427">
        <ele>351.02</ele>
        <time>2020-02-03T10:44:50Z</time>
      </trkpt>
      <trkpt lat="43.99832" lon="5.1843">
        <ele>351.02</ele>
        <time>2020-02-03T10:45:21Z</time>
      </trkpt>
      <trkpt lat="43.99837" lon="5.18427">
        <ele>351.02</ele>
        <time>2020-02-03T10:45:43Z</time>
      </trkpt>
      <trkpt lat="43.9983" lon="5.18431">
        <ele>351.02</ele>
        <time>2020-02-03T10:46:09Z</time>
      </trkpt>
      <trkpt lat="43.99825" lon="5.1843">
        <ele>351.98</ele>
        <time>2020-02-03T10:46:31Z</time>
      </trkpt>
      <trkpt lat="43.99811" lon="5.18438">
        <ele>354.86</ele>
        <time>2020-02-03T10:46:52Z</time>
      </trkpt>
      <trkpt lat="43.99801" lon="5.18459">
        <ele>356.31</ele>
        <time>2020-02-03T10:47:13Z</time>
      </trkpt>
      <trkpt lat="43.99795" lon="5.18467">
        <ele>357.27</ele>
        <time>2020-02-03T10:47:27Z</time>
      </trkpt>
      <trkpt lat="43.9979" lon="5.18474">
        <ele>358.23</ele>
        <time>2020-02-03T10:47:36Z</time>
      </trkpt>
      <trkpt lat="43.9978" lon="5.18493">
        <ele>357.75</ele>
        <time>2020-02-03T10:47:52Z</time>
      </trkpt>
      <trkpt lat="43.99768" lon="5.18506">
        <ele>358.71</ele>
        <time>2020-02-03T10:48:09Z</time>
      </trkpt>
      <trkpt lat="43.99757" lon="5.18525">
        <ele>359.19</ele>
        <time>2020-02-03T10:48:26Z</time>
      </trkpt>
      <trkpt lat="43.99756" lon="5.18526">
        <ele>358.71</ele>
        <time>2020-02-03T10:48:27Z</time>
      </trkpt>
      <trkpt lat="43.99739" lon="5.18534">
        <ele>361.59</ele>
        <time>2020-02-03T10:48:45Z</time>
      </trkpt>
      <trkpt lat="43.99737" lon="5.18535">
        <ele>362.07</ele>
        <time>2020-02-03T10:48:47Z</time>
      </trkpt>
      <trkpt lat="43.99728" lon="5.18547">
        <ele>361.59</ele>
        <time>2020-02-03T10:49:05Z</time>
      </trkpt>
      <trkpt lat="43.99714" lon="5.18553">
        <ele>363.52</ele>
        <time>2020-02-03T10:49:23Z</time>
      </trkpt>
      <trkpt lat="43.99697" lon="5.1856">
        <ele>365.92</ele>
        <time>2020-02-03T10:49:41Z</time>
      </trkpt>
      <trkpt lat="43.99684" lon="5.18571">
        <ele>367.36</ele>
        <time>2020-02-03T10:50:02Z</time>
      </trkpt>
      <trkpt lat="43.99666" lon="5.18593">
        <ele>369.28</ele>
        <time>2020-02-03T10:50:24Z</time>
      </trkpt>
      <trkpt lat="43.99658" lon="5.18608">
        <ele>369.76</ele>
        <time>2020-02-03T10:50:39Z</time>
      </trkpt>
      <trkpt lat="43.99642" lon="5.18623">
        <ele>371.21</ele>
        <time>2020-02-03T10:51:01Z</time>
      </trkpt>
      <trkpt lat="43.99632" lon="5.18628">
        <ele>374.09</ele>
        <time>2020-02-03T10:51:15Z</time>
      </trkpt>
      <trkpt lat="43.99615" lon="5.1863">
        <ele>375.05</ele>
        <time>2020-02-03T10:51:33Z</time>
      </trkpt>
      <trkpt lat="43.99598" lon="5.1864">
        <ele>376.49</ele>
        <time>2020-02-03T10:51:51Z</time>
      </trkpt>
      <trkpt lat="43.9958" lon="5.18646">
        <ele>379.38</ele>
        <time>2020-02-03T10:52:12Z</time>
      </trkpt>
      <trkpt lat="43.99569" lon="5.18646">
        <ele>380.82</ele>
        <time>2020-02-03T10:52:23Z</time>
      </trkpt>
      <trkpt lat="43.99556" lon="5.18641">
        <ele>383.22</ele>
        <time>2020-02-03T10:52:42Z</time>
      </trkpt>
      <trkpt lat="43.99547" lon="5.18633">
        <ele>386.11</ele>
        <time>2020-02-03T10:52:57Z</time>
      </trkpt>
      <trkpt lat="43.99537" lon="5.18628">
        <ele>388.03</ele>
        <time>2020-02-03T10:53:11Z</time>
      </trkpt>
      <trkpt lat="43.99535" lon="5.18633">
        <ele>387.55</ele>
        <time>2020-02-03T10:53:42Z</time>
      </trkpt>
      <trkpt lat="43.99536" lon="5.18635">
        <ele>388.99</ele>
        <time>2020-02-03T10:54:09Z</time>
      </trkpt>
      <trkpt lat="43.99537" lon="5.18628">
        <ele>388.51</ele>
        <time>2020-02-03T10:54:40Z</time>
      </trkpt>
      <trkpt lat="43.99537" lon="5.1863">
        <ele>388.51</ele>
        <time>2020-02-03T10:55:03Z</time>
      </trkpt>
      <trkpt lat="43.99538" lon="5.18632">
        <ele>389.47</ele>
        <time>2020-02-03T10:55:30Z</time>
      </trkpt>
      <trkpt lat="43.99537" lon="5.1863">
        <ele>389.47</ele>
        <time>2020-02-03T10:56:03Z</time>
      </trkpt>
      <trkpt lat="43.9954" lon="5.18631">
        <ele>389.47</ele>
        <time>2020-02-03T10:56:38Z</time>
      </trkpt>
      <trkpt lat="43.9953" lon="5.1863">
        <ele>388.99</ele>
        <time>2020-02-03T10:57:06Z</time>
      </trkpt>
      <trkpt lat="43.99515" lon="5.18637">
        <ele>391.39</ele>
        <time>2020-02-03T10:57:21Z</time>
      </trkpt>
      <trkpt lat="43.99503" lon="5.18652">
        <ele>391.87</ele>
        <time>2020-02-03T10:57:37Z</time>
      </trkpt>
      <trkpt lat="43.99493" lon="5.18664">
        <ele>392.36</ele>
        <time>2020-02-03T10:57:51Z</time>
      </trkpt>
      <trkpt lat="43.99486" lon="5.18681">
        <ele>392.36</ele>
        <time>2020-02-03T10:58:06Z</time>
      </trkpt>
      <trkpt lat="43.99472" lon="5.18699">
        <ele>392.84</ele>
        <time>2020-02-03T10:58:23Z</time>
      </trkpt>
      <trkpt lat="43.9947" lon="5.187">
        <ele>393.32</ele>
        <time>2020-02-03T10:58:25Z</time>
      </trkpt>
      <trkpt lat="43.99457" lon="5.18707">
        <ele>395.72</ele>
        <time>2020-02-03T10:58:41Z</time>
      </trkpt>
      <trkpt lat="43.99441" lon="5.18726">
        <ele>397.16</ele>
        <time>2020-02-03T10:59:04Z</time>
      </trkpt>
      <trkpt lat="43.99431" lon="5.1874">
        <ele>398.6</ele>
        <time>2020-02-03T10:59:20Z</time>
      </trkpt>
      <trkpt lat="43.9943" lon="5.18741">
        <ele>398.6</ele>
        <time>2020-02-03T10:59:22Z</time>
      </trkpt>
      <trkpt lat="43.99418" lon="5.18751">
        <ele>401.01</ele>
        <time>2020-02-03T10:59:39Z</time>
      </trkpt>
      <trkpt lat="43.99407" lon="5.18777">
        <ele>401.01</ele>
        <time>2020-02-03T11:00:00Z</time>
      </trkpt>
      <trkpt lat="43.99393" lon="5.18797">
        <ele>403.41</ele>
        <time>2020-02-03T11:00:22Z</time>
      </trkpt>
      <trkpt lat="43.99386" lon="5.18804">
        <ele>403.41</ele>
        <time>2020-02-03T11:00:30Z</time>
      </trkpt>
      <trkpt lat="43.99371" lon="5.18817">
        <ele>406.29</ele>
        <time>2020-02-03T11:00:47Z</time>
      </trkpt>
      <trkpt lat="43.99361" lon="5.18821">
        <ele>406.77</ele>
        <time>2020-02-03T11:00:59Z</time>
      </trkpt>
      <trkpt lat="43.99343" lon="5.18826">
        <ele>409.18</ele>
        <time>2020-02-03T11:01:19Z</time>
      </trkpt>
      <trkpt lat="43.99327" lon="5.18838">
        <ele>411.58</ele>
        <time>2020-02-03T11:01:38Z</time>
      </trkpt>
      <trkpt lat="43.99311" lon="5.18842">
        <ele>413.98</ele>
        <time>2020-02-03T11:01:56Z</time>
      </trkpt>
      <trkpt lat="43.99297" lon="5.1886">
        <ele>415.91</ele>
        <time>2020-02-03T11:02:17Z</time>
      </trkpt>
      <trkpt lat="43.99279" lon="5.18875">
        <ele>418.31</ele>
        <time>2020-02-03T11:02:38Z</time>
      </trkpt>
      <trkpt lat="43.99278" lon="5.18875">
        <ele>418.31</ele>
        <time>2020-02-03T11:02:39Z</time>
      </trkpt>
      <trkpt lat="43.99264" lon="5.18878">
        <ele>420.23</ele>
        <time>2020-02-03T11:02:53Z</time>
      </trkpt>
      <trkpt lat="43.99252" lon="5.18881">
        <ele>421.19</ele>
        <time>2020-02-03T11:03:04Z</time>
      </trkpt>
      <trkpt lat="43.99241" lon="5.18882">
        <ele>422.64</ele>
        <time>2020-02-03T11:03:17Z</time>
      </trkpt>
      <trkpt lat="43.9922" lon="5.18882">
        <ele>425.52</ele>
        <time>2020-02-03T11:03:39Z</time>
      </trkpt>
      <trkpt lat="43.99204" lon="5.18882">
        <ele>426.96</ele>
        <time>2020-02-03T11:03:53Z</time>
      </trkpt>
      <trkpt lat="43.9919" lon="5.18883">
        <ele>428.89</ele>
        <time>2020-02-03T11:04:08Z</time>
      </trkpt>
      <trkpt lat="43.99171" lon="5.18875">
        <ele>431.29</ele>
        <time>2020-02-03T11:04:27Z</time>
      </trkpt>
      <trkpt lat="43.99166" lon="5.18873">
        <ele>431.77</ele>
        <time>2020-02-03T11:04:32Z</time>
      </trkpt>
      <trkpt lat="43.99147" lon="5.18867">
        <ele>434.17</ele>
        <time>2020-02-03T11:04:50Z</time>
      </trkpt>
      <trkpt lat="43.99132" lon="5.18873">
        <ele>435.61</ele>
        <time>2020-02-03T11:05:05Z</time>
      </trkpt>
      <trkpt lat="43.99123" lon="5.1887">
        <ele>437.06</ele>
        <time>2020-02-03T11:05:20Z</time>
      </trkpt>
      <trkpt lat="43.99123" lon="5.18871">
        <ele>437.54</ele>
        <time>2020-02-03T11:05:39Z</time>
      </trkpt>
      <trkpt lat="43.99123" lon="5.18875">
        <ele>436.58</ele>
        <time>2020-02-03T11:06:00Z</time>
      </trkpt>
      <trkpt lat="43.99128" lon="5.18875">
        <ele>437.54</ele>
        <time>2020-02-03T11:06:26Z</time>
      </trkpt>
      <trkpt lat="43.99127" lon="5.18874">
        <ele>437.54</ele>
        <time>2020-02-03T11:06:54Z</time>
      </trkpt>
      <trkpt lat="43.99128" lon="5.18874">
        <ele>437.54</ele>
        <time>2020-02-03T11:07:23Z</time>
      </trkpt>
      <trkpt lat="43.99127" lon="5.18874">
        <ele>437.54</ele>
        <time>2020-02-03T11:07:45Z</time>
      </trkpt>
      <trkpt lat="43.99128" lon="5.18867">
        <ele>437.54</ele>
        <time>2020-02-03T11:08:07Z</time>
      </trkpt>
      <trkpt lat="43.99126" lon="5.18868">
        <ele>437.54</ele>
        <time>2020-02-03T11:08:26Z</time>
      </trkpt>
      <trkpt lat="43.99122" lon="5.1887">
        <ele>437.54</ele>
        <time>2020-02-03T11:08:48Z</time>
      </trkpt>
      <trkpt lat="43.99121" lon="5.18871">
        <ele>437.54</ele>
        <time>2020-02-03T11:09:21Z</time>
      </trkpt>
      <trkpt lat="43.99121" lon="5.1887">
        <ele>437.54</ele>
        <time>2020-02-03T11:09:55Z</time>
      </trkpt>
      <trkpt lat="43.99122" lon="5.18867">
        <ele>437.54</ele>
        <time>2020-02-03T11:10:51Z</time>
      </trkpt>
      <trkpt lat="43.99123" lon="5.18867">
        <ele>437.54</ele>
        <time>2020-02-03T11:12:23Z</time>
      </trkpt>
      <trkpt lat="43.99123" lon="5.18867">
        <ele>437.54</ele>
        <time>2020-02-03T11:12:36Z</time>
      </trkpt>
      <trkpt lat="43.99124" lon="5.18865">
        <ele>437.54</ele>
        <time>2020-02-03T11:12:49Z</time>
      </trkpt>
      <trkpt lat="43.99124" lon="5.18865">
        <ele>437.54</ele>
        <time>2020-02-03T11:13:40Z</time>
      </trkpt>
      <trkpt lat="43.99125" lon="5.18865">
        <ele>437.54</ele>
        <time>2020-02-03T11:15:34Z</time>
      </trkpt>
      <trkpt lat="43.99125" lon="5.18864">
        <ele>437.54</ele>
        <time>2020-02-03T11:18:57Z</time>
      </trkpt>
      <trkpt lat="43.99124" lon="5.18867">
        <ele>437.54</ele>
        <time>2020-02-03T11:20:23Z</time>
      </trkpt>
      <trkpt lat="43.99123" lon="5.18866">
        <ele>437.54</ele>
        <time>2020-02-03T11:21:49Z</time>
      </trkpt>
      <trkpt lat="43.99122" lon="5.18867">
        <ele>437.54</ele>
        <time>2020-02-03T11:25:43Z</time>
      </trkpt>
      <trkpt lat="43.99123" lon="5.18865">
        <ele>437.54</ele>
        <time>2020-02-03T11:27:57Z</time>
      </trkpt>
      <trkpt lat="43.99124" lon="5.18868">
        <ele>437.54</ele>
        <time>2020-02-03T11:28:24Z</time>
      </trkpt>
      <trkpt lat="43.99124" lon="5.18869">
        <ele>437.54</ele>
        <time>2020-02-03T11:28:54Z</time>
      </trkpt>
      <trkpt lat="43.99125" lon="5.18866">
        <ele>437.54</ele>
        <time>2020-02-03T11:29:21Z</time>
      </trkpt>
      <trkpt lat="43.99123" lon="5.18867">
        <ele>437.54</ele>
        <time>2020-02-03T11:29:46Z</time>
      </trkpt>
      <trkpt lat="43.99123" lon="5.18873">
        <ele>437.54</ele>
        <time>2020-02-03T11:32:24Z</time>
      </trkpt>
      <trkpt lat="43.99123" lon="5.18866">
        <ele>437.54</ele>
        <time>2020-02-03T11:33:19Z</time>
      </trkpt>
      <trkpt lat="43.99121" lon="5.18866">
        <ele>437.54</ele>
        <time>2020-02-03T11:34:01Z</time>
      </trkpt>
      <trkpt lat="43.99122" lon="5.18868">
        <ele>437.54</ele>
        <time>2020-02-03T11:35:26Z</time>
      </trkpt>
      <trkpt lat="43.99121" lon="5.18868">
        <ele>437.54</ele>
        <time>2020-02-03T11:37:32Z</time>
      </trkpt>
      <trkpt lat="43.99124" lon="5.18868">
        <ele>437.54</ele>
        <time>2020-02-03T11:39:34Z</time>
      </trkpt>
      <trkpt lat="43.99124" lon="5.18866">
        <ele>437.54</ele>
        <time>2020-02-03T11:40:07Z</time>
      </trkpt>
      <trkpt lat="43.99125" lon="5.18867">
        <ele>437.54</ele>
        <time>2020-02-03T11:41:08Z</time>
      </trkpt>
      <trkpt lat="43.99125" lon="5.18866">
        <ele>437.54</ele>
        <time>2020-02-03T11:42:58Z</time>
      </trkpt>
      <trkpt lat="43.99125" lon="5.18867">
        <ele>437.54</ele>
        <time>2020-02-03T11:44:08Z</time>
      </trkpt>
      <trkpt lat="43.99126" lon="5.18867">
        <ele>437.54</ele>
        <time>2020-02-03T11:45:15Z</time>
      </trkpt>
      <trkpt lat="43.99124" lon="5.18864">
        <ele>437.54</ele>
        <time>2020-02-03T11:45:52Z</time>
      </trkpt>
      <trkpt lat="43.99123" lon="5.18867">
        <ele>437.54</ele>
        <time>2020-02-03T11:47:46Z</time>
      </trkpt>
      <trkpt lat="43.99123" lon="5.18864">
        <ele>437.54</ele>
        <time>2020-02-03T11:48:21Z</time>
      </trkpt>
      <trkpt lat="43.99123" lon="5.18868">
        <ele>437.54</ele>
        <time>2020-02-03T11:50:13Z</time>
      </trkpt>
      <trkpt lat="43.99123" lon="5.18867">
        <ele>437.54</ele>
        <time>2020-02-03T11:51:28Z</time>
      </trkpt>
      <trkpt lat="43.99123" lon="5.18866">
        <ele>437.54</ele>
        <time>2020-02-03T11:52:23Z</time>
      </trkpt>
      <trkpt lat="43.99124" lon="5.18868">
        <ele>437.54</ele>
        <time>2020-02-03T11:52:53Z</time>
      </trkpt>
      <trkpt lat="43.99124" lon="5.18867">
        <ele>437.54</ele>
        <time>2020-02-03T11:53:22Z</time>
      </trkpt>
      <trkpt lat="43.99123" lon="5.18871">
        <ele>437.54</ele>
        <time>2020-02-03T11:53:44Z</time>
      </trkpt>
      <trkpt lat="43.9912" lon="5.18874">
        <ele>437.54</ele>
        <time>2020-02-03T11:54:09Z</time>
      </trkpt>
      <trkpt lat="43.99118" lon="5.18876">
        <ele>437.54</ele>
        <time>2020-02-03T11:54:44Z</time>
      </trkpt>
      <trkpt lat="43.99118" lon="5.18878">
        <ele>437.54</ele>
        <time>2020-02-03T11:55:55Z</time>
      </trkpt>
      <trkpt lat="43.99117" lon="5.18877">
        <ele>437.54</ele>
        <time>2020-02-03T11:56:33Z</time>
      </trkpt>
      <trkpt lat="43.99117" lon="5.18876">
        <ele>437.54</ele>
        <time>2020-02-03T11:57:03Z</time>
      </trkpt>
      <trkpt lat="43.99118" lon="5.18876">
        <ele>437.54</ele>
        <time>2020-02-03T11:57:33Z</time>
      </trkpt>
      <trkpt lat="43.99118" lon="5.18877">
        <ele>437.54</ele>
        <time>2020-02-03T11:58:06Z</time>
      </trkpt>
      <trkpt lat="43.9912" lon="5.18878">
        <ele>437.54</ele>
        <time>2020-02-03T11:58:38Z</time>
      </trkpt>
      <trkpt lat="43.9912" lon="5.18875">
        <ele>437.54</ele>
        <time>2020-02-03T11:59:09Z</time>
      </trkpt>
      <trkpt lat="43.9912" lon="5.18873">
        <ele>437.54</ele>
        <time>2020-02-03T11:59:15Z</time>
      </trkpt>
      <trkpt lat="43.99122" lon="5.18872">
        <ele>437.54</ele>
        <time>2020-02-03T11:59:45Z</time>
      </trkpt>
      <trkpt lat="43.99121" lon="5.18873">
        <ele>437.54</ele>
        <time>2020-02-03T12:00:10Z</time>
      </trkpt>
      <trkpt lat="43.99122" lon="5.18872">
        <ele>437.54</ele>
        <time>2020-02-03T12:00:44Z</time>
      </trkpt>
      <trkpt lat="43.9912" lon="5.18873">
        <ele>437.54</ele>
        <time>2020-02-03T12:01:14Z</time>
      </trkpt>
      <trkpt lat="43.99124" lon="5.1887">
        <ele>437.54</ele>
        <time>2020-02-03T12:01:44Z</time>
      </trkpt>
      <trkpt lat="43.99118" lon="5.18873">
        <ele>437.54</ele>
        <time>2020-02-03T12:02:19Z</time>
      </trkpt>
      <trkpt lat="43.99121" lon="5.18871">
        <ele>437.54</ele>
        <time>2020-02-03T12:02:50Z</time>
      </trkpt>
      <trkpt lat="43.99121" lon="5.18869">
        <ele>437.54</ele>
        <time>2020-02-03T12:02:51Z</time>
      </trkpt>
      <trkpt lat="43.99105" lon="5.18848">
        <ele>437.54</ele>
        <time>2020-02-03T12:03:11Z</time>
      </trkpt>
      <trkpt lat="43.99102" lon="5.18842">
        <ele>442.82</ele>
        <time>2020-02-03T12:03:15Z</time>
      </trkpt>
      <trkpt lat="43.99101" lon="5.1884">
        <ele>443.31</ele>
        <time>2020-02-03T12:03:17Z</time>
      </trkpt>
      <trkpt lat="43.99099" lon="5.18833">
        <ele>442.82</ele>
        <time>2020-02-03T12:03:23Z</time>
      </trkpt>
      <trkpt lat="43.99092" lon="5.18816">
        <ele>441.86</ele>
        <time>2020-02-03T12:03:39Z</time>
      </trkpt>
      <trkpt lat="43.99083" lon="5.18796">
        <ele>439.46</ele>
        <time>2020-02-03T12:03:58Z</time>
      </trkpt>
      <trkpt lat="43.99075" lon="5.18782">
        <ele>439.46</ele>
        <time>2020-02-03T12:04:10Z</time>
      </trkpt>
      <trkpt lat="43.99061" lon="5.18769">
        <ele>438.98</ele>
        <time>2020-02-03T12:04:26Z</time>
      </trkpt>
      <trkpt lat="43.99042" lon="5.18752">
        <ele>437.54</ele>
        <time>2020-02-03T12:04:49Z</time>
      </trkpt>
      <trkpt lat="43.99028" lon="5.18736">
        <ele>436.58</ele>
        <time>2020-02-03T12:05:05Z</time>
      </trkpt>
      <trkpt lat="43.99018" lon="5.18719">
        <ele>436.1</ele>
        <time>2020-02-03T12:05:23Z</time>
      </trkpt>
      <trkpt lat="43.9901" lon="5.18698">
        <ele>433.69</ele>
        <time>2020-02-03T12:05:40Z</time>
      </trkpt>
      <trkpt lat="43.99005" lon="5.18696">
        <ele>434.17</ele>
        <time>2020-02-03T12:05:46Z</time>
      </trkpt>
      <trkpt lat="43.98982" lon="5.18698">
        <ele>430.81</ele>
        <time>2020-02-03T12:06:04Z</time>
      </trkpt>
      <trkpt lat="43.98966" lon="5.18681">
        <ele>428.4</ele>
        <time>2020-02-03T12:06:23Z</time>
      </trkpt>
      <trkpt lat="43.98962" lon="5.18673">
        <ele>427.44</ele>
        <time>2020-02-03T12:06:29Z</time>
      </trkpt>
      <trkpt lat="43.98952" lon="5.18646">
        <ele>426</ele>
        <time>2020-02-03T12:06:48Z</time>
      </trkpt>
      <trkpt lat="43.9894" lon="5.18612">
        <ele>425.04</ele>
        <time>2020-02-03T12:07:11Z</time>
      </trkpt>
      <trkpt lat="43.98931" lon="5.18593">
        <ele>424.56</ele>
        <time>2020-02-03T12:07:27Z</time>
      </trkpt>
      <trkpt lat="43.98923" lon="5.18573">
        <ele>423.6</ele>
        <time>2020-02-03T12:07:44Z</time>
      </trkpt>
      <trkpt lat="43.98913" lon="5.18548">
        <ele>423.12</ele>
        <time>2020-02-03T12:08:03Z</time>
      </trkpt>
      <trkpt lat="43.98903" lon="5.18522">
        <ele>423.12</ele>
        <time>2020-02-03T12:08:21Z</time>
      </trkpt>
      <trkpt lat="43.98893" lon="5.18496">
        <ele>422.16</ele>
        <time>2020-02-03T12:08:41Z</time>
      </trkpt>
      <trkpt lat="43.9888" lon="5.1847">
        <ele>421.68</ele>
        <time>2020-02-03T12:09:02Z</time>
      </trkpt>
      <trkpt lat="43.98868" lon="5.18447">
        <ele>421.68</ele>
        <time>2020-02-03T12:09:22Z</time>
      </trkpt>
      <trkpt lat="43.98855" lon="5.18428">
        <ele>421.68</ele>
        <time>2020-02-03T12:09:40Z</time>
      </trkpt>
      <trkpt lat="43.98853" lon="5.18425">
        <ele>421.19</ele>
        <time>2020-02-03T12:09:42Z</time>
      </trkpt>
      <trkpt lat="43.98843" lon="5.18404">
        <ele>421.19</ele>
        <time>2020-02-03T12:09:59Z</time>
      </trkpt>
      <trkpt lat="43.98833" lon="5.18379">
        <ele>420.71</ele>
        <time>2020-02-03T12:10:19Z</time>
      </trkpt>
      <trkpt lat="43.98827" lon="5.1836">
        <ele>419.75</ele>
        <time>2020-02-03T12:10:34Z</time>
      </trkpt>
      <trkpt lat="43.98818" lon="5.18336">
        <ele>419.75</ele>
        <time>2020-02-03T12:10:55Z</time>
      </trkpt>
      <trkpt lat="43.98809" lon="5.18313">
        <ele>419.27</ele>
        <time>2020-02-03T12:11:11Z</time>
      </trkpt>
      <trkpt lat="43.98801" lon="5.1829">
        <ele>419.27</ele>
        <time>2020-02-03T12:11:28Z</time>
      </trkpt>
      <trkpt lat="43.98791" lon="5.18263">
        <ele>419.27</ele>
        <time>2020-02-03T12:11:48Z</time>
      </trkpt>
      <trkpt lat="43.98791" lon="5.1826">
        <ele>419.27</ele>
        <time>2020-02-03T12:11:50Z</time>
      </trkpt>
      <trkpt lat="43.98781" lon="5.18233">
        <ele>419.27</ele>
        <time>2020-02-03T12:12:10Z</time>
      </trkpt>
      <trkpt lat="43.98772" lon="5.18206">
        <ele>419.75</ele>
        <time>2020-02-03T12:12:30Z</time>
      </trkpt>
      <trkpt lat="43.9877" lon="5.18193">
        <ele>419.27</ele>
        <time>2020-02-03T12:12:52Z</time>
      </trkpt>
      <trkpt lat="43.98769" lon="5.18187">
        <ele>418.79</ele>
        <time>2020-02-03T12:13:11Z</time>
      </trkpt>
      <trkpt lat="43.9877" lon="5.18181">
        <ele>418.79</ele>
        <time>2020-02-03T12:13:37Z</time>
      </trkpt>
      <trkpt lat="43.98769" lon="5.18161">
        <ele>416.87</ele>
        <time>2020-02-03T12:13:55Z</time>
      </trkpt>
      <trkpt lat="43.98763" lon="5.18134">
        <ele>415.43</ele>
        <time>2020-02-03T12:14:15Z</time>
      </trkpt>
      <trkpt lat="43.98755" lon="5.18112">
        <ele>413.5</ele>
        <time>2020-02-03T12:14:35Z</time>
      </trkpt>
      <trkpt lat="43.98747" lon="5.18086">
        <ele>412.06</ele>
        <time>2020-02-03T12:14:57Z</time>
      </trkpt>
      <trkpt lat="43.9874" lon="5.18057">
        <ele>410.62</ele>
        <time>2020-02-03T12:15:18Z</time>
      </trkpt>
      <trkpt lat="43.98738" lon="5.18039">
        <ele>410.62</ele>
        <time>2020-02-03T12:15:29Z</time>
      </trkpt>
      <trkpt lat="43.98734" lon="5.18014">
        <ele>410.62</ele>
        <time>2020-02-03T12:15:44Z</time>
      </trkpt>
      <trkpt lat="43.9873" lon="5.17993">
        <ele>411.1</ele>
        <time>2020-02-03T12:16:00Z</time>
      </trkpt>
      <trkpt lat="43.98732" lon="5.17972">
        <ele>411.58</ele>
        <time>2020-02-03T12:16:14Z</time>
      </trkpt>
      <trkpt lat="43.98738" lon="5.17945">
        <ele>412.54</ele>
        <time>2020-02-03T12:16:32Z</time>
      </trkpt>
      <trkpt lat="43.98742" lon="5.17927">
        <ele>412.06</ele>
        <time>2020-02-03T12:16:44Z</time>
      </trkpt>
      <trkpt lat="43.98743" lon="5.17924">
        <ele>412.06</ele>
        <time>2020-02-03T12:16:46Z</time>
      </trkpt>
      <trkpt lat="43.98748" lon="5.17903">
        <ele>412.54</ele>
        <time>2020-02-03T12:16:59Z</time>
      </trkpt>
      <trkpt lat="43.98746" lon="5.17877">
        <ele>412.06</ele>
        <time>2020-02-03T12:17:15Z</time>
      </trkpt>
      <trkpt lat="43.98746" lon="5.17854">
        <ele>412.06</ele>
        <time>2020-02-03T12:17:28Z</time>
      </trkpt>
      <trkpt lat="43.98745" lon="5.17849">
        <ele>412.06</ele>
        <time>2020-02-03T12:17:31Z</time>
      </trkpt>
      <trkpt lat="43.98739" lon="5.17824">
        <ele>410.62</ele>
        <time>2020-02-03T12:17:46Z</time>
      </trkpt>
      <trkpt lat="43.98733" lon="5.17812">
        <ele>410.62</ele>
        <time>2020-02-03T12:17:56Z</time>
      </trkpt>
      <trkpt lat="43.9873" lon="5.17792">
        <ele>409.66</ele>
        <time>2020-02-03T12:18:11Z</time>
      </trkpt>
      <trkpt lat="43.98722" lon="5.17759">
        <ele>407.74</ele>
        <time>2020-02-03T12:18:33Z</time>
      </trkpt>
      <trkpt lat="43.98721" lon="5.17731">
        <ele>405.81</ele>
        <time>2020-02-03T12:18:49Z</time>
      </trkpt>
      <trkpt lat="43.98721" lon="5.17704">
        <ele>403.41</ele>
        <time>2020-02-03T12:19:06Z</time>
      </trkpt>
      <trkpt lat="43.98725" lon="5.17684">
        <ele>400.53</ele>
        <time>2020-02-03T12:19:18Z</time>
      </trkpt>
      <trkpt lat="43.98724" lon="5.17651">
        <ele>398.6</ele>
        <time>2020-02-03T12:19:35Z</time>
      </trkpt>
      <trkpt lat="43.98724" lon="5.1762">
        <ele>395.24</ele>
        <time>2020-02-03T12:19:55Z</time>
      </trkpt>
      <trkpt lat="43.98719" lon="5.17607">
        <ele>391.87</ele>
        <time>2020-02-03T12:20:07Z</time>
      </trkpt>
      <trkpt lat="43.9871" lon="5.17595">
        <ele>388.99</ele>
        <time>2020-02-03T12:20:20Z</time>
      </trkpt>
      <trkpt lat="43.98702" lon="5.17582">
        <ele>385.63</ele>
        <time>2020-02-03T12:20:31Z</time>
      </trkpt>
      <trkpt lat="43.98697" lon="5.17557">
        <ele>382.26</ele>
        <time>2020-02-03T12:20:46Z</time>
      </trkpt>
      <trkpt lat="43.98697" lon="5.17543">
        <ele>379.38</ele>
        <time>2020-02-03T12:20:53Z</time>
      </trkpt>
      <trkpt lat="43.98696" lon="5.17539">
        <ele>378.42</ele>
        <time>2020-02-03T12:20:55Z</time>
      </trkpt>
      <trkpt lat="43.98694" lon="5.17503">
        <ele>376.97</ele>
        <time>2020-02-03T12:21:14Z</time>
      </trkpt>
      <trkpt lat="43.98693" lon="5.17475">
        <ele>374.09</ele>
        <time>2020-02-03T12:21:32Z</time>
      </trkpt>
      <trkpt lat="43.98692" lon="5.1744">
        <ele>371.69</ele>
        <time>2020-02-03T12:21:52Z</time>
      </trkpt>
      <trkpt lat="43.98693" lon="5.17408">
        <ele>368.8</ele>
        <time>2020-02-03T12:22:09Z</time>
      </trkpt>
      <trkpt lat="43.98693" lon="5.17406">
        <ele>368.8</ele>
        <time>2020-02-03T12:22:10Z</time>
      </trkpt>
      <trkpt lat="43.9869" lon="5.17378">
        <ele>366.4</ele>
        <time>2020-02-03T12:22:26Z</time>
      </trkpt>
      <trkpt lat="43.98686" lon="5.17352">
        <ele>364.48</ele>
        <time>2020-02-03T12:22:43Z</time>
      </trkpt>
      <trkpt lat="43.98678" lon="5.17326">
        <ele>362.07</ele>
        <time>2020-02-03T12:23:03Z</time>
      </trkpt>
      <trkpt lat="43.98676" lon="5.17323">
        <ele>362.07</ele>
        <time>2020-02-03T12:23:05Z</time>
      </trkpt>
      <trkpt lat="43.9866" lon="5.17301">
        <ele>363.04</ele>
        <time>2020-02-03T12:23:26Z</time>
      </trkpt>
      <trkpt lat="43.98657" lon="5.17301">
        <ele>363.04</ele>
        <time>2020-02-03T12:23:29Z</time>
      </trkpt>
      <trkpt lat="43.98653" lon="5.17302">
        <ele>363.52</ele>
        <time>2020-02-03T12:23:33Z</time>
      </trkpt>
      <trkpt lat="43.98629" lon="5.17333">
        <ele>364.96</ele>
        <time>2020-02-03T12:23:57Z</time>
      </trkpt>
      <trkpt lat="43.98614" lon="5.17346">
        <ele>366.4</ele>
        <time>2020-02-03T12:24:15Z</time>
      </trkpt>
      <trkpt lat="43.98616" lon="5.17345">
        <ele>365.92</ele>
        <time>2020-02-03T12:24:36Z</time>
      </trkpt>
      <trkpt lat="43.98617" lon="5.17345">
        <ele>367.36</ele>
        <time>2020-02-03T12:25:02Z</time>
      </trkpt>
      <trkpt lat="43.98615" lon="5.17343">
        <ele>366.88</ele>
        <time>2020-02-03T12:25:32Z</time>
      </trkpt>
      <trkpt lat="43.98614" lon="5.17343">
        <ele>366.88</ele>
        <time>2020-02-03T12:25:53Z</time>
      </trkpt>
      <trkpt lat="43.98615" lon="5.17344">
        <ele>366.88</ele>
        <time>2020-02-03T12:26:28Z</time>
      </trkpt>
      <trkpt lat="43.98616" lon="5.17344">
        <ele>366.88</ele>
        <time>2020-02-03T12:26:47Z</time>
      </trkpt>
      <trkpt lat="43.98616" lon="5.17344">
        <ele>366.88</ele>
        <time>2020-02-03T12:27:17Z</time>
      </trkpt>
      <trkpt lat="43.98617" lon="5.17344">
        <ele>366.88</ele>
        <time>2020-02-03T12:28:00Z</time>
      </trkpt>
      <trkpt lat="43.98617" lon="5.17345">
        <ele>366.88</ele>
        <time>2020-02-03T12:28:36Z</time>
      </trkpt>
      <trkpt lat="43.98616" lon="5.17344">
        <ele>366.88</ele>
        <time>2020-02-03T12:29:17Z</time>
      </trkpt>
      <trkpt lat="43.98615" lon="5.17344">
        <ele>366.88</ele>
        <time>2020-02-03T12:29:49Z</time>
      </trkpt>
      <trkpt lat="43.98615" lon="5.17344">
        <ele>366.88</ele>
        <time>2020-02-03T12:30:20Z</time>
      </trkpt>
      <trkpt lat="43.98616" lon="5.17344">
        <ele>366.88</ele>
        <time>2020-02-03T12:30:45Z</time>
      </trkpt>
      <trkpt lat="43.98604" lon="5.1736">
        <ele>367.84</ele>
        <time>2020-02-03T12:31:01Z</time>
      </trkpt>
      <trkpt lat="43.98603" lon="5.17362">
        <ele>367.84</ele>
        <time>2020-02-03T12:31:03Z</time>
      </trkpt>
      <trkpt lat="43.98586" lon="5.17382">
        <ele>368.8</ele>
        <time>2020-02-03T12:31:21Z</time>
      </trkpt>
      <trkpt lat="43.98568" lon="5.17406">
        <ele>369.76</ele>
        <time>2020-02-03T12:31:44Z</time>
      </trkpt>
      <trkpt lat="43.98546" lon="5.17416">
        <ele>369.76</ele>
        <time>2020-02-03T12:32:06Z</time>
      </trkpt>
      <trkpt lat="43.98526" lon="5.17427">
        <ele>367.84</ele>
        <time>2020-02-03T12:32:25Z</time>
      </trkpt>
      <trkpt lat="43.98504" lon="5.17438">
        <ele>366.4</ele>
        <time>2020-02-03T12:32:45Z</time>
      </trkpt>
      <trkpt lat="43.9848" lon="5.17443">
        <ele>366.4</ele>
        <time>2020-02-03T12:33:05Z</time>
      </trkpt>
      <trkpt lat="43.98467" lon="5.17423">
        <ele>363.04</ele>
        <time>2020-02-03T12:33:22Z</time>
      </trkpt>
      <trkpt lat="43.98454" lon="5.17402">
        <ele>363.52</ele>
        <time>2020-02-03T12:33:39Z</time>
      </trkpt>
      <trkpt lat="43.98444" lon="5.17387">
        <ele>363.04</ele>
        <time>2020-02-03T12:33:54Z</time>
      </trkpt>
      <trkpt lat="43.98433" lon="5.17366">
        <ele>364</ele>
        <time>2020-02-03T12:34:13Z</time>
      </trkpt>
      <trkpt lat="43.98425" lon="5.17351">
        <ele>365.44</ele>
        <time>2020-02-03T12:34:29Z</time>
      </trkpt>
      <trkpt lat="43.98415" lon="5.17339">
        <ele>366.4</ele>
        <time>2020-02-03T12:34:42Z</time>
      </trkpt>
      <trkpt lat="43.98403" lon="5.17323">
        <ele>366.88</ele>
        <time>2020-02-03T12:34:57Z</time>
      </trkpt>
      <trkpt lat="43.98403" lon="5.17322">
        <ele>366.88</ele>
        <time>2020-02-03T12:34:58Z</time>
      </trkpt>
      <trkpt lat="43.9839" lon="5.17307">
        <ele>366.88</ele>
        <time>2020-02-03T12:35:17Z</time>
      </trkpt>
      <trkpt lat="43.98378" lon="5.17299">
        <ele>366.4</ele>
        <time>2020-02-03T12:35:36Z</time>
      </trkpt>
      <trkpt lat="43.98364" lon="5.17293">
        <ele>364.96</ele>
        <time>2020-02-03T12:35:51Z</time>
      </trkpt>
      <trkpt lat="43.98346" lon="5.17283">
        <ele>364</ele>
        <time>2020-02-03T12:36:11Z</time>
      </trkpt>
      <trkpt lat="43.98329" lon="5.17273">
        <ele>363.04</ele>
        <time>2020-02-03T12:36:30Z</time>
      </trkpt>
      <trkpt lat="43.98312" lon="5.17262">
        <ele>362.55</ele>
        <time>2020-02-03T12:36:49Z</time>
      </trkpt>
      <trkpt lat="43.98294" lon="5.1725">
        <ele>362.55</ele>
        <time>2020-02-03T12:37:10Z</time>
      </trkpt>
      <trkpt lat="43.98274" lon="5.17242">
        <ele>361.11</ele>
        <time>2020-02-03T12:37:33Z</time>
      </trkpt>
      <trkpt lat="43.98257" lon="5.17234">
        <ele>360.15</ele>
        <time>2020-02-03T12:37:51Z</time>
      </trkpt>
      <trkpt lat="43.98236" lon="5.17227">
        <ele>360.15</ele>
        <time>2020-02-03T12:38:11Z</time>
      </trkpt>
      <trkpt lat="43.98223" lon="5.17222">
        <ele>359.19</ele>
        <time>2020-02-03T12:38:27Z</time>
      </trkpt>
      <trkpt lat="43.98203" lon="5.17214">
        <ele>358.23</ele>
        <time>2020-02-03T12:38:49Z</time>
      </trkpt>
      <trkpt lat="43.98187" lon="5.17199">
        <ele>356.79</ele>
        <time>2020-02-03T12:39:10Z</time>
      </trkpt>
      <trkpt lat="43.98176" lon="5.17185">
        <ele>356.31</ele>
        <time>2020-02-03T12:39:28Z</time>
      </trkpt>
      <trkpt lat="43.98169" lon="5.17179">
        <ele>354.86</ele>
        <time>2020-02-03T12:39:48Z</time>
      </trkpt>
      <trkpt lat="43.9817" lon="5.17182">
        <ele>355.34</ele>
        <time>2020-02-03T12:40:13Z</time>
      </trkpt>
      <trkpt lat="43.98167" lon="5.17192">
        <ele>355.34</ele>
        <time>2020-02-03T12:40:49Z</time>
      </trkpt>
      <trkpt lat="43.98168" lon="5.17186">
        <ele>355.34</ele>
        <time>2020-02-03T12:41:23Z</time>
      </trkpt>
      <trkpt lat="43.98156" lon="5.17163">
        <ele>355.34</ele>
        <time>2020-02-03T12:41:40Z</time>
      </trkpt>
      <trkpt lat="43.98155" lon="5.17159">
        <ele>355.34</ele>
        <time>2020-02-03T12:41:43Z</time>
      </trkpt>
      <trkpt lat="43.98153" lon="5.17156">
        <ele>355.34</ele>
        <time>2020-02-03T12:41:45Z</time>
      </trkpt>
      <trkpt lat="43.9815" lon="5.17153">
        <ele>355.34</ele>
        <time>2020-02-03T12:41:47Z</time>
      </trkpt>
      <trkpt lat="43.98133" lon="5.17139">
        <ele>353.9</ele>
        <time>2020-02-03T12:42:04Z</time>
      </trkpt>
      <trkpt lat="43.98115" lon="5.17121">
        <ele>354.38</ele>
        <time>2020-02-03T12:42:21Z</time>
      </trkpt>
      <trkpt lat="43.98103" lon="5.17112">
        <ele>354.38</ele>
        <time>2020-02-03T12:42:32Z</time>
      </trkpt>
      <trkpt lat="43.98084" lon="5.171">
        <ele>354.38</ele>
        <time>2020-02-03T12:42:51Z</time>
      </trkpt>
      <trkpt lat="43.98072" lon="5.1709">
        <ele>355.83</ele>
        <time>2020-02-03T12:43:07Z</time>
      </trkpt>
      <trkpt lat="43.98065" lon="5.17093">
        <ele>354.38</ele>
        <time>2020-02-03T12:43:28Z</time>
      </trkpt>
      <trkpt lat="43.98052" lon="5.17101">
        <ele>351.98</ele>
        <time>2020-02-03T12:43:46Z</time>
      </trkpt>
      <trkpt lat="43.98039" lon="5.17081">
        <ele>349.58</ele>
        <time>2020-02-03T12:44:05Z</time>
      </trkpt>
      <trkpt lat="43.98036" lon="5.17067">
        <ele>348.62</ele>
        <time>2020-02-03T12:44:23Z</time>
      </trkpt>
      <trkpt lat="43.98036" lon="5.17048">
        <ele>344.77</ele>
        <time>2020-02-03T12:44:42Z</time>
      </trkpt>
      <trkpt lat="43.98027" lon="5.17043">
        <ele>342.85</ele>
        <time>2020-02-03T12:44:58Z</time>
      </trkpt>
      <trkpt lat="43.9801" lon="5.17035">
        <ele>339.96</ele>
        <time>2020-02-03T12:45:17Z</time>
      </trkpt>
      <trkpt lat="43.98" lon="5.17017">
        <ele>339</ele>
        <time>2020-02-03T12:45:36Z</time>
      </trkpt>
      <trkpt lat="43.97994" lon="5.17">
        <ele>337.56</ele>
        <time>2020-02-03T12:45:55Z</time>
      </trkpt>
      <trkpt lat="43.97981" lon="5.16981">
        <ele>336.6</ele>
        <time>2020-02-03T12:46:12Z</time>
      </trkpt>
      <trkpt lat="43.9797" lon="5.16978">
        <ele>336.12</ele>
        <time>2020-02-03T12:46:23Z</time>
      </trkpt>
      <trkpt lat="43.97963" lon="5.16964">
        <ele>336.6</ele>
        <time>2020-02-03T12:46:41Z</time>
      </trkpt>
      <trkpt lat="43.9797" lon="5.16954">
        <ele>336.12</ele>
        <time>2020-02-03T12:46:58Z</time>
      </trkpt>
      <trkpt lat="43.97966" lon="5.16953">
        <ele>336.12</ele>
        <time>2020-02-03T12:47:11Z</time>
      </trkpt>
      <trkpt lat="43.97958" lon="5.16943">
        <ele>335.64</ele>
        <time>2020-02-03T12:47:37Z</time>
      </trkpt>
      <trkpt lat="43.97956" lon="5.16912">
        <ele>335.16</ele>
        <time>2020-02-03T12:47:56Z</time>
      </trkpt>
      <trkpt lat="43.9795" lon="5.16881">
        <ele>334.2</ele>
        <time>2020-02-03T12:48:18Z</time>
      </trkpt>
      <trkpt lat="43.97944" lon="5.16855">
        <ele>333.23</ele>
        <time>2020-02-03T12:48:40Z</time>
      </trkpt>
      <trkpt lat="43.9794" lon="5.16828">
        <ele>332.27</ele>
        <time>2020-02-03T12:48:59Z</time>
      </trkpt>
      <trkpt lat="43.9793" lon="5.16807">
        <ele>331.79</ele>
        <time>2020-02-03T12:49:18Z</time>
      </trkpt>
      <trkpt lat="43.97934" lon="5.16778">
        <ele>330.83</ele>
        <time>2020-02-03T12:49:38Z</time>
      </trkpt>
      <trkpt lat="43.9793" lon="5.16757">
        <ele>330.83</ele>
        <time>2020-02-03T12:49:56Z</time>
      </trkpt>
      <trkpt lat="43.97932" lon="5.16732">
        <ele>330.83</ele>
        <time>2020-02-03T12:50:15Z</time>
      </trkpt>
      <trkpt lat="43.97937" lon="5.1671">
        <ele>329.39</ele>
        <time>2020-02-03T12:50:31Z</time>
      </trkpt>
      <trkpt lat="43.9794" lon="5.16695">
        <ele>328.91</ele>
        <time>2020-02-03T12:50:49Z</time>
      </trkpt>
      <trkpt lat="43.97939" lon="5.16666">
        <ele>328.43</ele>
        <time>2020-02-03T12:51:08Z</time>
      </trkpt>
      <trkpt lat="43.97929" lon="5.16645">
        <ele>327.47</ele>
        <time>2020-02-03T12:51:23Z</time>
      </trkpt>
      <trkpt lat="43.97915" lon="5.16631">
        <ele>326.99</ele>
        <time>2020-02-03T12:51:39Z</time>
      </trkpt>
      <trkpt lat="43.97895" lon="5.16625">
        <ele>326.99</ele>
        <time>2020-02-03T12:51:56Z</time>
      </trkpt>
      <trkpt lat="43.97883" lon="5.16609">
        <ele>326.02</ele>
        <time>2020-02-03T12:52:14Z</time>
      </trkpt>
      <trkpt lat="43.97868" lon="5.16591">
        <ele>326.02</ele>
        <time>2020-02-03T12:52:34Z</time>
      </trkpt>
      <trkpt lat="43.97856" lon="5.16575">
        <ele>325.06</ele>
        <time>2020-02-03T12:52:52Z</time>
      </trkpt>
      <trkpt lat="43.97848" lon="5.1656">
        <ele>323.14</ele>
        <time>2020-02-03T12:53:10Z</time>
      </trkpt>
      <trkpt lat="43.97841" lon="5.16539">
        <ele>323.62</ele>
        <time>2020-02-03T12:53:26Z</time>
      </trkpt>
      <trkpt lat="43.97842" lon="5.16521">
        <ele>323.14</ele>
        <time>2020-02-03T12:53:42Z</time>
      </trkpt>
      <trkpt lat="43.97845" lon="5.16486">
        <ele>322.18</ele>
        <time>2020-02-03T12:54:05Z</time>
      </trkpt>
      <trkpt lat="43.97843" lon="5.16455">
        <ele>321.7</ele>
        <time>2020-02-03T12:54:27Z</time>
      </trkpt>
      <trkpt lat="43.97838" lon="5.16437">
        <ele>321.7</ele>
        <time>2020-02-03T12:54:45Z</time>
      </trkpt>
      <trkpt lat="43.97836" lon="5.1642">
        <ele>321.22</ele>
        <time>2020-02-03T12:55:04Z</time>
      </trkpt>
      <trkpt lat="43.97832" lon="5.16417">
        <ele>321.22</ele>
        <time>2020-02-03T12:55:32Z</time>
      </trkpt>
      <trkpt lat="43.97832" lon="5.16417">
        <ele>319.78</ele>
        <time>2020-02-03T12:56:02Z</time>
      </trkpt>
      <trkpt lat="43.97835" lon="5.16414">
        <ele>320.26</ele>
        <time>2020-02-03T12:56:33Z</time>
      </trkpt>
      <trkpt lat="43.97832" lon="5.16407">
        <ele>321.22</ele>
        <time>2020-02-03T12:56:59Z</time>
      </trkpt>
      <trkpt lat="43.97825" lon="5.16394">
        <ele>320.26</ele>
        <time>2020-02-03T12:57:17Z</time>
      </trkpt>
      <trkpt lat="43.97822" lon="5.1637">
        <ele>318.81</ele>
        <time>2020-02-03T12:57:37Z</time>
      </trkpt>
      <trkpt lat="43.97828" lon="5.16344">
        <ele>317.37</ele>
        <time>2020-02-03T12:57:57Z</time>
      </trkpt>
      <trkpt lat="43.9783" lon="5.1633">
        <ele>317.85</ele>
        <time>2020-02-03T12:58:15Z</time>
      </trkpt>
      <trkpt lat="43.97828" lon="5.16333">
        <ele>318.33</ele>
        <time>2020-02-03T12:58:38Z</time>
      </trkpt>
      <trkpt lat="43.97828" lon="5.16334">
        <ele>318.33</ele>
        <time>2020-02-03T12:59:07Z</time>
      </trkpt>
      <trkpt lat="43.97825" lon="5.16333">
        <ele>318.33</ele>
        <time>2020-02-03T12:59:38Z</time>
      </trkpt>
      <trkpt lat="43.97827" lon="5.16334">
        <ele>318.81</ele>
        <time>2020-02-03T13:00:04Z</time>
      </trkpt>
      <trkpt lat="43.97829" lon="5.16322">
        <ele>318.33</ele>
        <time>2020-02-03T13:00:17Z</time>
      </trkpt>
      <trkpt lat="43.97831" lon="5.16295">
        <ele>318.33</ele>
        <time>2020-02-03T13:00:38Z</time>
      </trkpt>
      <trkpt lat="43.97831" lon="5.16274">
        <ele>316.41</ele>
        <time>2020-02-03T13:00:54Z</time>
      </trkpt>
      <trkpt lat="43.97836" lon="5.16246">
        <ele>315.93</ele>
        <time>2020-02-03T13:01:16Z</time>
      </trkpt>
      <trkpt lat="43.97841" lon="5.16224">
        <ele>314.49</ele>
        <time>2020-02-03T13:01:35Z</time>
      </trkpt>
      <trkpt lat="43.97846" lon="5.16202">
        <ele>314.97</ele>
        <time>2020-02-03T13:01:53Z</time>
      </trkpt>
      <trkpt lat="43.97862" lon="5.16185">
        <ele>313.53</ele>
        <time>2020-02-03T13:02:12Z</time>
      </trkpt>
      <trkpt lat="43.97882" lon="5.16167">
        <ele>312.57</ele>
        <time>2020-02-03T13:02:31Z</time>
      </trkpt>
      <trkpt lat="43.97881" lon="5.1614">
        <ele>313.05</ele>
        <time>2020-02-03T13:02:48Z</time>
      </trkpt>
      <trkpt lat="43.97885" lon="5.16111">
        <ele>311.12</ele>
        <time>2020-02-03T13:03:10Z</time>
      </trkpt>
      <trkpt lat="43.97882" lon="5.16105">
        <ele>310.64</ele>
        <time>2020-02-03T13:03:20Z</time>
      </trkpt>
      <trkpt lat="43.97869" lon="5.16083">
        <ele>311.12</ele>
        <time>2020-02-03T13:03:39Z</time>
      </trkpt>
      <trkpt lat="43.97849" lon="5.16056">
        <ele>310.64</ele>
        <time>2020-02-03T13:04:02Z</time>
      </trkpt>
      <trkpt lat="43.97833" lon="5.16039">
        <ele>310.64</ele>
        <time>2020-02-03T13:04:22Z</time>
      </trkpt>
      <trkpt lat="43.97814" lon="5.16018">
        <ele>310.64</ele>
        <time>2020-02-03T13:04:45Z</time>
      </trkpt>
      <trkpt lat="43.97809" lon="5.15999">
        <ele>308.24</ele>
        <time>2020-02-03T13:04:59Z</time>
      </trkpt>
      <trkpt lat="43.97801" lon="5.15978">
        <ele>306.32</ele>
        <time>2020-02-03T13:05:19Z</time>
      </trkpt>
      <trkpt lat="43.97796" lon="5.15954">
        <ele>305.36</ele>
        <time>2020-02-03T13:05:41Z</time>
      </trkpt>
      <trkpt lat="43.97803" lon="5.15934">
        <ele>306.32</ele>
        <time>2020-02-03T13:06:00Z</time>
      </trkpt>
      <trkpt lat="43.97814" lon="5.15917">
        <ele>306.32</ele>
        <time>2020-02-03T13:06:17Z</time>
      </trkpt>
      <trkpt lat="43.97828" lon="5.15898">
        <ele>304.88</ele>
        <time>2020-02-03T13:06:35Z</time>
      </trkpt>
      <trkpt lat="43.97846" lon="5.1588">
        <ele>305.84</ele>
        <time>2020-02-03T13:06:56Z</time>
      </trkpt>
      <trkpt lat="43.97865" lon="5.15867">
        <ele>303.43</ele>
        <time>2020-02-03T13:07:17Z</time>
      </trkpt>
      <trkpt lat="43.97886" lon="5.15853">
        <ele>301.99</ele>
        <time>2020-02-03T13:07:38Z</time>
      </trkpt>
      <trkpt lat="43.97909" lon="5.15852">
        <ele>301.03</ele>
        <time>2020-02-03T13:07:57Z</time>
      </trkpt>
      <trkpt lat="43.97928" lon="5.15855">
        <ele>301.51</ele>
        <time>2020-02-03T13:08:16Z</time>
      </trkpt>
      <trkpt lat="43.97943" lon="5.15838">
        <ele>301.03</ele>
        <time>2020-02-03T13:08:34Z</time>
      </trkpt>
      <trkpt lat="43.97947" lon="5.15819">
        <ele>300.07</ele>
        <time>2020-02-03T13:08:49Z</time>
      </trkpt>
      <trkpt lat="43.97948" lon="5.15796">
        <ele>299.59</ele>
        <time>2020-02-03T13:09:09Z</time>
      </trkpt>
      <trkpt lat="43.97947" lon="5.15792">
        <ele>299.59</ele>
        <time>2020-02-03T13:09:11Z</time>
      </trkpt>
      <trkpt lat="43.97942" lon="5.15775">
        <ele>299.11</ele>
        <time>2020-02-03T13:09:31Z</time>
      </trkpt>
      <trkpt lat="43.97937" lon="5.15737">
        <ele>300.07</ele>
        <time>2020-02-03T13:09:56Z</time>
      </trkpt>
      <trkpt lat="43.97942" lon="5.1571">
        <ele>300.07</ele>
        <time>2020-02-03T13:10:17Z</time>
      </trkpt>
      <trkpt lat="43.97946" lon="5.15681">
        <ele>300.55</ele>
        <time>2020-02-03T13:10:36Z</time>
      </trkpt>
      <trkpt lat="43.97954" lon="5.15669">
        <ele>300.07</ele>
        <time>2020-02-03T13:10:49Z</time>
      </trkpt>
      <trkpt lat="43.97964" lon="5.15654">
        <ele>300.55</ele>
        <time>2020-02-03T13:11:03Z</time>
      </trkpt>
      <trkpt lat="43.97973" lon="5.15637">
        <ele>300.55</ele>
        <time>2020-02-03T13:11:20Z</time>
      </trkpt>
      <trkpt lat="43.97981" lon="5.15625">
        <ele>300.07</ele>
        <time>2020-02-03T13:11:33Z</time>
      </trkpt>
      <trkpt lat="43.97988" lon="5.15621">
        <ele>301.03</ele>
        <time>2020-02-03T13:11:39Z</time>
      </trkpt>
      <trkpt lat="43.97992" lon="5.15619">
        <ele>300.55</ele>
        <time>2020-02-03T13:11:42Z</time>
      </trkpt>
      <trkpt lat="43.98009" lon="5.15617">
        <ele>299.59</ele>
        <time>2020-02-03T13:12:02Z</time>
      </trkpt>
      <trkpt lat="43.98008" lon="5.15617">
        <ele>299.11</ele>
        <time>2020-02-03T13:12:31Z</time>
      </trkpt>
      <trkpt lat="43.98007" lon="5.15615">
        <ele>299.59</ele>
        <time>2020-02-03T13:13:00Z</time>
      </trkpt>
      <trkpt lat="43.98008" lon="5.15617">
        <ele>299.59</ele>
        <time>2020-02-03T13:13:33Z</time>
      </trkpt>
      <trkpt lat="43.98009" lon="5.15616">
        <ele>299.59</ele>
        <time>2020-02-03T13:14:01Z</time>
      </trkpt>
      <trkpt lat="43.98011" lon="5.1562">
        <ele>299.59</ele>
        <time>2020-02-03T13:14:31Z</time>
      </trkpt>
      <trkpt lat="43.98007" lon="5.15616">
        <ele>299.59</ele>
        <time>2020-02-03T13:14:56Z</time>
      </trkpt>
      <trkpt lat="43.97997" lon="5.15612">
        <ele>299.59</ele>
        <time>2020-02-03T13:15:19Z</time>
      </trkpt>
      <trkpt lat="43.97996" lon="5.15609">
        <ele>299.59</ele>
        <time>2020-02-03T13:15:46Z</time>
      </trkpt>
      <trkpt lat="43.98007" lon="5.15614">
        <ele>300.07</ele>
        <time>2020-02-03T13:16:03Z</time>
      </trkpt>
      <trkpt lat="43.98026" lon="5.15613">
        <ele>299.59</ele>
        <time>2020-02-03T13:16:21Z</time>
      </trkpt>
      <trkpt lat="43.98042" lon="5.15604">
        <ele>300.07</ele>
        <time>2020-02-03T13:16:37Z</time>
      </trkpt>
      <trkpt lat="43.98059" lon="5.15586">
        <ele>299.11</ele>
        <time>2020-02-03T13:16:54Z</time>
      </trkpt>
      <trkpt lat="43.98072" lon="5.15567">
        <ele>299.59</ele>
        <time>2020-02-03T13:17:12Z</time>
      </trkpt>
      <trkpt lat="43.98076" lon="5.15553">
        <ele>298.63</ele>
        <time>2020-02-03T13:17:25Z</time>
      </trkpt>
      <trkpt lat="43.98085" lon="5.1554">
        <ele>299.11</ele>
        <time>2020-02-03T13:17:37Z</time>
      </trkpt>
      <trkpt lat="43.98099" lon="5.15521">
        <ele>299.59</ele>
        <time>2020-02-03T13:17:56Z</time>
      </trkpt>
      <trkpt lat="43.98115" lon="5.15506">
        <ele>299.11</ele>
        <time>2020-02-03T13:18:10Z</time>
      </trkpt>
      <trkpt lat="43.98134" lon="5.15492">
        <ele>299.59</ele>
        <time>2020-02-03T13:18:26Z</time>
      </trkpt>
      <trkpt lat="43.98148" lon="5.15476">
        <ele>298.63</ele>
        <time>2020-02-03T13:18:42Z</time>
      </trkpt>
      <trkpt lat="43.98165" lon="5.15462">
        <ele>298.63</ele>
        <time>2020-02-03T13:19:01Z</time>
      </trkpt>
      <trkpt lat="43.98181" lon="5.15454">
        <ele>297.18</ele>
        <time>2020-02-03T13:19:17Z</time>
      </trkpt>
      <trkpt lat="43.98187" lon="5.15453">
        <ele>297.18</ele>
        <time>2020-02-03T13:19:23Z</time>
      </trkpt>
      <trkpt lat="43.98203" lon="5.15448">
        <ele>296.22</ele>
        <time>2020-02-03T13:19:39Z</time>
      </trkpt>
      <trkpt lat="43.98222" lon="5.15444">
        <ele>296.7</ele>
        <time>2020-02-03T13:19:57Z</time>
      </trkpt>
      <trkpt lat="43.9824" lon="5.15439">
        <ele>295.26</ele>
        <time>2020-02-03T13:20:15Z</time>
      </trkpt>
      <trkpt lat="43.98246" lon="5.15422">
        <ele>293.34</ele>
        <time>2020-02-03T13:20:35Z</time>
      </trkpt>
      <trkpt lat="43.98249" lon="5.15419">
        <ele>293.34</ele>
        <time>2020-02-03T13:20:57Z</time>
      </trkpt>
      <trkpt lat="43.98249" lon="5.15416">
        <ele>292.86</ele>
        <time>2020-02-03T13:20:59Z</time>
      </trkpt>
      <trkpt lat="43.98254" lon="5.15387">
        <ele>291.9</ele>
        <time>2020-02-03T13:21:17Z</time>
      </trkpt>
      <trkpt lat="43.98255" lon="5.15383">
        <ele>291.42</ele>
        <time>2020-02-03T13:21:20Z</time>
      </trkpt>
      <trkpt lat="43.98259" lon="5.15358">
        <ele>289.01</ele>
        <time>2020-02-03T13:21:36Z</time>
      </trkpt>
      <trkpt lat="43.98265" lon="5.15331">
        <ele>289.97</ele>
        <time>2020-02-03T13:21:56Z</time>
      </trkpt>
      <trkpt lat="43.98271" lon="5.153">
        <ele>288.53</ele>
        <time>2020-02-03T13:22:17Z</time>
      </trkpt>
      <trkpt lat="43.9828" lon="5.15271">
        <ele>287.57</ele>
        <time>2020-02-03T13:22:37Z</time>
      </trkpt>
      <trkpt lat="43.98287" lon="5.15248">
        <ele>287.57</ele>
        <time>2020-02-03T13:22:54Z</time>
      </trkpt>
      <trkpt lat="43.98296" lon="5.15224">
        <ele>285.65</ele>
        <time>2020-02-03T13:23:13Z</time>
      </trkpt>
      <trkpt lat="43.98296" lon="5.15246">
        <ele>283.73</ele>
        <time>2020-02-03T13:23:30Z</time>
      </trkpt>
      <trkpt lat="43.98295" lon="5.15251">
        <ele>283.73</ele>
        <time>2020-02-03T13:23:33Z</time>
      </trkpt>
      <trkpt lat="43.98302" lon="5.15271">
        <ele>284.21</ele>
        <time>2020-02-03T13:23:50Z</time>
      </trkpt>
      <trkpt lat="43.98304" lon="5.15272">
        <ele>284.21</ele>
        <time>2020-02-03T13:23:52Z</time>
      </trkpt>
      <trkpt lat="43.9832" lon="5.15288">
        <ele>284.21</ele>
        <time>2020-02-03T13:24:08Z</time>
      </trkpt>
      <trkpt lat="43.98338" lon="5.15299">
        <ele>285.65</ele>
        <time>2020-02-03T13:24:24Z</time>
      </trkpt>
      <trkpt lat="43.9836" lon="5.15312">
        <ele>286.61</ele>
        <time>2020-02-03T13:24:43Z</time>
      </trkpt>
      <trkpt lat="43.98367" lon="5.15321">
        <ele>287.09</ele>
        <time>2020-02-03T13:24:52Z</time>
      </trkpt>
      <trkpt lat="43.98364" lon="5.15345">
        <ele>288.05</ele>
        <time>2020-02-03T13:25:09Z</time>
      </trkpt>
      <trkpt lat="43.98362" lon="5.15369">
        <ele>289.97</ele>
        <time>2020-02-03T13:25:26Z</time>
      </trkpt>
      <trkpt lat="43.98362" lon="5.1539">
        <ele>291.42</ele>
        <time>2020-02-03T13:25:41Z</time>
      </trkpt>
      <trkpt lat="43.98366" lon="5.15413">
        <ele>292.38</ele>
        <time>2020-02-03T13:25:57Z</time>
      </trkpt>
      <trkpt lat="43.98371" lon="5.15434">
        <ele>293.34</ele>
        <time>2020-02-03T13:26:18Z</time>
      </trkpt>
      <trkpt lat="43.98385" lon="5.15429">
        <ele>294.78</ele>
        <time>2020-02-03T13:26:34Z</time>
      </trkpt>
      <trkpt lat="43.98396" lon="5.15423">
        <ele>297.67</ele>
        <time>2020-02-03T13:26:47Z</time>
      </trkpt>
      <trkpt lat="43.98413" lon="5.15416">
        <ele>300.07</ele>
        <time>2020-02-03T13:27:07Z</time>
      </trkpt>
      <trkpt lat="43.98429" lon="5.15404">
        <ele>301.99</ele>
        <time>2020-02-03T13:27:26Z</time>
      </trkpt>
      <trkpt lat="43.98442" lon="5.15393">
        <ele>304.39</ele>
        <time>2020-02-03T13:27:43Z</time>
      </trkpt>
      <trkpt lat="43.98456" lon="5.15384">
        <ele>305.84</ele>
        <time>2020-02-03T13:28:02Z</time>
      </trkpt>
      <trkpt lat="43.98468" lon="5.15374">
        <ele>309.2</ele>
        <time>2020-02-03T13:28:18Z</time>
      </trkpt>
      <trkpt lat="43.98479" lon="5.15349">
        <ele>312.09</ele>
        <time>2020-02-03T13:28:39Z</time>
      </trkpt>
      <trkpt lat="43.98487" lon="5.15339">
        <ele>313.53</ele>
        <time>2020-02-03T13:28:50Z</time>
      </trkpt>
      <trkpt lat="43.98498" lon="5.15326">
        <ele>314.97</ele>
        <time>2020-02-03T13:29:06Z</time>
      </trkpt>
      <trkpt lat="43.98511" lon="5.15309">
        <ele>317.85</ele>
        <time>2020-02-03T13:29:26Z</time>
      </trkpt>
      <trkpt lat="43.98526" lon="5.15296">
        <ele>320.26</ele>
        <time>2020-02-03T13:29:47Z</time>
      </trkpt>
      <trkpt lat="43.98544" lon="5.15293">
        <ele>323.14</ele>
        <time>2020-02-03T13:30:07Z</time>
      </trkpt>
      <trkpt lat="43.98559" lon="5.15294">
        <ele>326.02</ele>
        <time>2020-02-03T13:30:26Z</time>
      </trkpt>
      <trkpt lat="43.98574" lon="5.15286">
        <ele>328.91</ele>
        <time>2020-02-03T13:30:47Z</time>
      </trkpt>
      <trkpt lat="43.98586" lon="5.15277">
        <ele>332.27</ele>
        <time>2020-02-03T13:31:05Z</time>
      </trkpt>
      <trkpt lat="43.98597" lon="5.1527">
        <ele>335.64</ele>
        <time>2020-02-03T13:31:22Z</time>
      </trkpt>
      <trkpt lat="43.98599" lon="5.15267">
        <ele>335.64</ele>
        <time>2020-02-03T13:31:43Z</time>
      </trkpt>
      <trkpt lat="43.986" lon="5.15267">
        <ele>336.12</ele>
        <time>2020-02-03T13:32:13Z</time>
      </trkpt>
      <trkpt lat="43.98604" lon="5.15266">
        <ele>336.6</ele>
        <time>2020-02-03T13:32:44Z</time>
      </trkpt>
      <trkpt lat="43.98601" lon="5.15266">
        <ele>336.6</ele>
        <time>2020-02-03T13:33:16Z</time>
      </trkpt>
      <trkpt lat="43.98599" lon="5.15264">
        <ele>336.6</ele>
        <time>2020-02-03T13:33:49Z</time>
      </trkpt>
      <trkpt lat="43.98607" lon="5.15262">
        <ele>336.6</ele>
        <time>2020-02-03T13:34:05Z</time>
      </trkpt>
      <trkpt lat="43.98617" lon="5.15263">
        <ele>336.6</ele>
        <time>2020-02-03T13:34:28Z</time>
      </trkpt>
      <trkpt lat="43.98617" lon="5.15264">
        <ele>340.92</ele>
        <time>2020-02-03T13:34:34Z</time>
      </trkpt>
      <trkpt lat="43.98618" lon="5.15264">
        <ele>340.92</ele>
        <time>2020-02-03T13:34:35Z</time>
      </trkpt>
      <trkpt lat="43.98632" lon="5.1526">
        <ele>343.81</ele>
        <time>2020-02-03T13:34:56Z</time>
      </trkpt>
      <trkpt lat="43.98641" lon="5.15253">
        <ele>346.21</ele>
        <time>2020-02-03T13:35:19Z</time>
      </trkpt>
      <trkpt lat="43.98642" lon="5.15253">
        <ele>346.21</ele>
        <time>2020-02-03T13:35:20Z</time>
      </trkpt>
      <trkpt lat="43.98652" lon="5.15245">
        <ele>348.13</ele>
        <time>2020-02-03T13:35:37Z</time>
      </trkpt>
      <trkpt lat="43.98661" lon="5.15243">
        <ele>351.02</ele>
        <time>2020-02-03T13:35:53Z</time>
      </trkpt>
      <trkpt lat="43.98678" lon="5.15243">
        <ele>353.42</ele>
        <time>2020-02-03T13:36:14Z</time>
      </trkpt>
      <trkpt lat="43.98691" lon="5.15239">
        <ele>355.34</ele>
        <time>2020-02-03T13:36:34Z</time>
      </trkpt>
      <trkpt lat="43.98702" lon="5.15233">
        <ele>356.79</ele>
        <time>2020-02-03T13:36:48Z</time>
      </trkpt>
      <trkpt lat="43.98708" lon="5.15227">
        <ele>359.19</ele>
        <time>2020-02-03T13:37:11Z</time>
      </trkpt>
      <trkpt lat="43.98708" lon="5.15229">
        <ele>359.19</ele>
        <time>2020-02-03T13:37:38Z</time>
      </trkpt>
      <trkpt lat="43.98711" lon="5.1523">
        <ele>358.71</ele>
        <time>2020-02-03T13:38:05Z</time>
      </trkpt>
      <trkpt lat="43.98709" lon="5.15227">
        <ele>359.19</ele>
        <time>2020-02-03T13:38:39Z</time>
      </trkpt>
      <trkpt lat="43.98709" lon="5.15227">
        <ele>359.19</ele>
        <time>2020-02-03T13:39:14Z</time>
      </trkpt>
      <trkpt lat="43.98712" lon="5.15211">
        <ele>359.19</ele>
        <time>2020-02-03T13:39:38Z</time>
      </trkpt>
      <trkpt lat="43.98717" lon="5.15199">
        <ele>359.19</ele>
        <time>2020-02-03T13:39:48Z</time>
      </trkpt>
      <trkpt lat="43.98728" lon="5.15184">
        <ele>359.67</ele>
        <time>2020-02-03T13:40:05Z</time>
      </trkpt>
      <trkpt lat="43.98739" lon="5.15166">
        <ele>360.15</ele>
        <time>2020-02-03T13:40:22Z</time>
      </trkpt>
      <trkpt lat="43.98746" lon="5.15149">
        <ele>360.15</ele>
        <time>2020-02-03T13:40:36Z</time>
      </trkpt>
      <trkpt lat="43.98751" lon="5.15118">
        <ele>361.11</ele>
        <time>2020-02-03T13:41:00Z</time>
      </trkpt>
      <trkpt lat="43.98756" lon="5.15091">
        <ele>362.07</ele>
        <time>2020-02-03T13:41:19Z</time>
      </trkpt>
      <trkpt lat="43.98763" lon="5.15071">
        <ele>364</ele>
        <time>2020-02-03T13:41:35Z</time>
      </trkpt>
      <trkpt lat="43.9877" lon="5.15059">
        <ele>363.52</ele>
        <time>2020-02-03T13:41:46Z</time>
      </trkpt>
      <trkpt lat="43.98777" lon="5.1505">
        <ele>362.55</ele>
        <time>2020-02-03T13:41:54Z</time>
      </trkpt>
      <trkpt lat="43.98786" lon="5.15032">
        <ele>362.07</ele>
        <time>2020-02-03T13:42:10Z</time>
      </trkpt>
      <trkpt lat="43.98787" lon="5.15026">
        <ele>362.07</ele>
        <time>2020-02-03T13:42:13Z</time>
      </trkpt>
      <trkpt lat="43.98789" lon="5.15006">
        <ele>362.07</ele>
        <time>2020-02-03T13:42:27Z</time>
      </trkpt>
      <trkpt lat="43.98798" lon="5.14983">
        <ele>362.55</ele>
        <time>2020-02-03T13:42:44Z</time>
      </trkpt>
      <trkpt lat="43.98799" lon="5.14981">
        <ele>362.55</ele>
        <time>2020-02-03T13:42:46Z</time>
      </trkpt>
      <trkpt lat="43.98809" lon="5.14954">
        <ele>362.55</ele>
        <time>2020-02-03T13:43:04Z</time>
      </trkpt>
      <trkpt lat="43.98824" lon="5.14939">
        <ele>362.07</ele>
        <time>2020-02-03T13:43:18Z</time>
      </trkpt>
      <trkpt lat="43.98833" lon="5.14925">
        <ele>362.07</ele>
        <time>2020-02-03T13:43:31Z</time>
      </trkpt>
      <trkpt lat="43.98848" lon="5.14911">
        <ele>362.07</ele>
        <time>2020-02-03T13:43:45Z</time>
      </trkpt>
      <trkpt lat="43.98866" lon="5.14904">
        <ele>361.59</ele>
        <time>2020-02-03T13:44:04Z</time>
      </trkpt>
      <trkpt lat="43.9888" lon="5.14905">
        <ele>362.07</ele>
        <time>2020-02-03T13:44:21Z</time>
      </trkpt>
      <trkpt lat="43.98896" lon="5.14915">
        <ele>360.15</ele>
        <time>2020-02-03T13:44:39Z</time>
      </trkpt>
      <trkpt lat="43.98912" lon="5.14924">
        <ele>358.71</ele>
        <time>2020-02-03T13:44:53Z</time>
      </trkpt>
      <trkpt lat="43.98936" lon="5.14931">
        <ele>357.75</ele>
        <time>2020-02-03T13:45:11Z</time>
      </trkpt>
      <trkpt lat="43.98955" lon="5.14933">
        <ele>355.83</ele>
        <time>2020-02-03T13:45:27Z</time>
      </trkpt>
      <trkpt lat="43.98975" lon="5.14924">
        <ele>354.38</ele>
        <time>2020-02-03T13:45:45Z</time>
      </trkpt>
      <trkpt lat="43.98989" lon="5.14912">
        <ele>352.94</ele>
        <time>2020-02-03T13:46:01Z</time>
      </trkpt>
      <trkpt lat="43.99008" lon="5.14903">
        <ele>350.06</ele>
        <time>2020-02-03T13:46:19Z</time>
      </trkpt>
      <trkpt lat="43.99028" lon="5.14894">
        <ele>347.17</ele>
        <time>2020-02-03T13:46:38Z</time>
      </trkpt>
      <trkpt lat="43.99048" lon="5.14888">
        <ele>344.77</ele>
        <time>2020-02-03T13:46:55Z</time>
      </trkpt>
      <trkpt lat="43.99068" lon="5.14889">
        <ele>343.81</ele>
        <time>2020-02-03T13:47:12Z</time>
      </trkpt>
      <trkpt lat="43.99085" lon="5.14888">
        <ele>343.33</ele>
        <time>2020-02-03T13:47:27Z</time>
      </trkpt>
      <trkpt lat="43.99104" lon="5.14889">
        <ele>341.41</ele>
        <time>2020-02-03T13:47:47Z</time>
      </trkpt>
      <trkpt lat="43.99124" lon="5.14888">
        <ele>339</ele>
        <time>2020-02-03T13:48:04Z</time>
      </trkpt>
      <trkpt lat="43.99145" lon="5.14883">
        <ele>337.08</ele>
        <time>2020-02-03T13:48:20Z</time>
      </trkpt>
      <trkpt lat="43.99163" lon="5.14871">
        <ele>335.16</ele>
        <time>2020-02-03T13:48:37Z</time>
      </trkpt>
      <trkpt lat="43.99174" lon="5.14857">
        <ele>334.68</ele>
        <time>2020-02-03T13:48:54Z</time>
      </trkpt>
      <trkpt lat="43.99182" lon="5.14852">
        <ele>334.2</ele>
        <time>2020-02-03T13:49:03Z</time>
      </trkpt>
      <trkpt lat="43.99203" lon="5.14839">
        <ele>334.68</ele>
        <time>2020-02-03T13:49:24Z</time>
      </trkpt>
      <trkpt lat="43.99219" lon="5.14834">
        <ele>335.64</ele>
        <time>2020-02-03T13:49:38Z</time>
      </trkpt>
      <trkpt lat="43.99234" lon="5.14832">
        <ele>336.12</ele>
        <time>2020-02-03T13:49:53Z</time>
      </trkpt>
      <trkpt lat="43.99235" lon="5.14832">
        <ele>336.12</ele>
        <time>2020-02-03T13:49:54Z</time>
      </trkpt>
      <trkpt lat="43.9925" lon="5.14827">
        <ele>337.08</ele>
        <time>2020-02-03T13:50:10Z</time>
      </trkpt>
      <trkpt lat="43.99267" lon="5.14818">
        <ele>337.08</ele>
        <time>2020-02-03T13:50:29Z</time>
      </trkpt>
      <trkpt lat="43.99283" lon="5.14813">
        <ele>336.6</ele>
        <time>2020-02-03T13:50:45Z</time>
      </trkpt>
      <trkpt lat="43.99301" lon="5.14806">
        <ele>335.16</ele>
        <time>2020-02-03T13:51:01Z</time>
      </trkpt>
      <trkpt lat="43.99317" lon="5.148">
        <ele>335.16</ele>
        <time>2020-02-03T13:51:15Z</time>
      </trkpt>
      <trkpt lat="43.99331" lon="5.14798">
        <ele>335.16</ele>
        <time>2020-02-03T13:51:28Z</time>
      </trkpt>
      <trkpt lat="43.99345" lon="5.14792">
        <ele>334.68</ele>
        <time>2020-02-03T13:51:47Z</time>
      </trkpt>
      <trkpt lat="43.99361" lon="5.14785">
        <ele>335.16</ele>
        <time>2020-02-03T13:52:04Z</time>
      </trkpt>
      <trkpt lat="43.99365" lon="5.14784">
        <ele>335.16</ele>
        <time>2020-02-03T13:52:10Z</time>
      </trkpt>
      <trkpt lat="43.99384" lon="5.14774">
        <ele>335.16</ele>
        <time>2020-02-03T13:52:27Z</time>
      </trkpt>
      <trkpt lat="43.99401" lon="5.14779">
        <ele>334.68</ele>
        <time>2020-02-03T13:52:42Z</time>
      </trkpt>
      <trkpt lat="43.99418" lon="5.1478">
        <ele>335.64</ele>
        <time>2020-02-03T13:52:54Z</time>
      </trkpt>
      <trkpt lat="43.99438" lon="5.14781">
        <ele>336.12</ele>
        <time>2020-02-03T13:53:12Z</time>
      </trkpt>
      <trkpt lat="43.99454" lon="5.14789">
        <ele>336.6</ele>
        <time>2020-02-03T13:53:28Z</time>
      </trkpt>
      <trkpt lat="43.99468" lon="5.14791">
        <ele>337.08</ele>
        <time>2020-02-03T13:53:44Z</time>
      </trkpt>
      <trkpt lat="43.99481" lon="5.14783">
        <ele>337.08</ele>
        <time>2020-02-03T13:54:02Z</time>
      </trkpt>
      <trkpt lat="43.99492" lon="5.14776">
        <ele>337.56</ele>
        <time>2020-02-03T13:54:16Z</time>
      </trkpt>
      <trkpt lat="43.99493" lon="5.14759">
        <ele>337.08</ele>
        <time>2020-02-03T13:54:30Z</time>
      </trkpt>
      <trkpt lat="43.99499" lon="5.14754">
        <ele>336.12</ele>
        <time>2020-02-03T13:54:40Z</time>
      </trkpt>
      <trkpt lat="43.99514" lon="5.14739">
        <ele>335.16</ele>
        <time>2020-02-03T13:54:53Z</time>
      </trkpt>
      <trkpt lat="43.99519" lon="5.14735">
        <ele>334.68</ele>
        <time>2020-02-03T13:54:58Z</time>
      </trkpt>
      <trkpt lat="43.99535" lon="5.14719">
        <ele>331.79</ele>
        <time>2020-02-03T13:55:17Z</time>
      </trkpt>
      <trkpt lat="43.99546" lon="5.14713">
        <ele>330.83</ele>
        <time>2020-02-03T13:55:33Z</time>
      </trkpt>
      <trkpt lat="43.99556" lon="5.14705">
        <ele>330.83</ele>
        <time>2020-02-03T13:55:42Z</time>
      </trkpt>
      <trkpt lat="43.99559" lon="5.14703">
        <ele>330.83</ele>
        <time>2020-02-03T13:55:44Z</time>
      </trkpt>
      <trkpt lat="43.99565" lon="5.14697">
        <ele>330.83</ele>
        <time>2020-02-03T13:55:49Z</time>
      </trkpt>
      <trkpt lat="43.99578" lon="5.14687">
        <ele>329.87</ele>
        <time>2020-02-03T13:56:03Z</time>
      </trkpt>
      <trkpt lat="43.99583" lon="5.14683">
        <ele>329.39</ele>
        <time>2020-02-03T13:56:08Z</time>
      </trkpt>
      <trkpt lat="43.99593" lon="5.14679">
        <ele>328.43</ele>
        <time>2020-02-03T13:56:24Z</time>
      </trkpt>
      <trkpt lat="43.99614" lon="5.14666">
        <ele>326.5</ele>
        <time>2020-02-03T13:56:42Z</time>
      </trkpt>
      <trkpt lat="43.99625" lon="5.14657">
        <ele>325.54</ele>
        <time>2020-02-03T13:56:52Z</time>
      </trkpt>
      <trkpt lat="43.99636" lon="5.14652">
        <ele>324.58</ele>
        <time>2020-02-03T13:57:02Z</time>
      </trkpt>
      <trkpt lat="43.99647" lon="5.14642">
        <ele>322.18</ele>
        <time>2020-02-03T13:57:18Z</time>
      </trkpt>
      <trkpt lat="43.99661" lon="5.1462">
        <ele>321.7</ele>
        <time>2020-02-03T13:57:36Z</time>
      </trkpt>
      <trkpt lat="43.99682" lon="5.14585">
        <ele>320.26</ele>
        <time>2020-02-03T13:58:00Z</time>
      </trkpt>
      <trkpt lat="43.99685" lon="5.14574">
        <ele>319.78</ele>
        <time>2020-02-03T13:58:22Z</time>
      </trkpt>
      <trkpt lat="43.99683" lon="5.14577">
        <ele>319.3</ele>
        <time>2020-02-03T13:58:48Z</time>
      </trkpt>
      <trkpt lat="43.99682" lon="5.14577">
        <ele>318.81</ele>
        <time>2020-02-03T13:59:17Z</time>
      </trkpt>
      <trkpt lat="43.99684" lon="5.14581">
        <ele>319.3</ele>
        <time>2020-02-03T13:59:27Z</time>
      </trkpt>
      <trkpt lat="43.99685" lon="5.14586">
        <ele>318.81</ele>
        <time>2020-02-03T13:59:31Z</time>
      </trkpt>
      <trkpt lat="43.99685" lon="5.14589">
        <ele>318.81</ele>
        <time>2020-02-03T13:59:33Z</time>
      </trkpt>
      <trkpt lat="43.99676" lon="5.14598">
        <ele>317.37</ele>
        <time>2020-02-03T13:59:45Z</time>
      </trkpt>
      <trkpt lat="43.99674" lon="5.14622">
        <ele>315.93</ele>
        <time>2020-02-03T14:00:00Z</time>
      </trkpt>
      <trkpt lat="43.99674" lon="5.14638">
        <ele>314.01</ele>
        <time>2020-02-03T14:00:18Z</time>
      </trkpt>
      <trkpt lat="43.99674" lon="5.14636">
        <ele>313.05</ele>
        <time>2020-02-03T14:00:33Z</time>
      </trkpt>
      <trkpt lat="43.99684" lon="5.14621">
        <ele>310.64</ele>
        <time>2020-02-03T14:00:47Z</time>
      </trkpt>
      <trkpt lat="43.99705" lon="5.14601">
        <ele>307.76</ele>
        <time>2020-02-03T14:01:08Z</time>
      </trkpt>
      <trkpt lat="43.99715" lon="5.14594">
        <ele>305.84</ele>
        <time>2020-02-03T14:01:28Z</time>
      </trkpt>
      <trkpt lat="43.99704" lon="5.14603">
        <ele>302.47</ele>
        <time>2020-02-03T14:01:45Z</time>
      </trkpt>
      <trkpt lat="43.9971" lon="5.14607">
        <ele>299.59</ele>
        <time>2020-02-03T14:01:59Z</time>
      </trkpt>
      <trkpt lat="43.99721" lon="5.14604">
        <ele>298.15</ele>
        <time>2020-02-03T14:02:18Z</time>
      </trkpt>
      <trkpt lat="43.99734" lon="5.14605">
        <ele>294.78</ele>
        <time>2020-02-03T14:02:30Z</time>
      </trkpt>
      <trkpt lat="43.99745" lon="5.14605">
        <ele>291.9</ele>
        <time>2020-02-03T14:02:42Z</time>
      </trkpt>
      <trkpt lat="43.99753" lon="5.14598">
        <ele>289.01</ele>
        <time>2020-02-03T14:02:57Z</time>
      </trkpt>
      <trkpt lat="43.99766" lon="5.1459">
        <ele>285.65</ele>
        <time>2020-02-03T14:03:13Z</time>
      </trkpt>
      <trkpt lat="43.99774" lon="5.1458">
        <ele>282.77</ele>
        <time>2020-02-03T14:03:26Z</time>
      </trkpt>
      <trkpt lat="43.99787" lon="5.14579">
        <ele>279.4</ele>
        <time>2020-02-03T14:03:41Z</time>
      </trkpt>
      <trkpt lat="43.99793" lon="5.14579">
        <ele>276.04</ele>
        <time>2020-02-03T14:03:52Z</time>
      </trkpt>
      <trkpt lat="43.99809" lon="5.14576">
        <ele>273.15</ele>
        <time>2020-02-03T14:04:05Z</time>
      </trkpt>
      <trkpt lat="43.99821" lon="5.1457">
        <ele>269.79</ele>
        <time>2020-02-03T14:04:19Z</time>
      </trkpt>
      <trkpt lat="43.99835" lon="5.14564">
        <ele>266.9</ele>
        <time>2020-02-03T14:04:32Z</time>
      </trkpt>
      <trkpt lat="43.99849" lon="5.14557">
        <ele>264.02</ele>
        <time>2020-02-03T14:04:49Z</time>
      </trkpt>
      <trkpt lat="43.99862" lon="5.14552">
        <ele>260.65</ele>
        <time>2020-02-03T14:05:03Z</time>
      </trkpt>
      <trkpt lat="43.99873" lon="5.14551">
        <ele>257.77</ele>
        <time>2020-02-03T14:05:16Z</time>
      </trkpt>
      <trkpt lat="43.99883" lon="5.14547">
        <ele>254.41</ele>
        <time>2020-02-03T14:05:30Z</time>
      </trkpt>
      <trkpt lat="43.99896" lon="5.14544">
        <ele>251.52</ele>
        <time>2020-02-03T14:05:44Z</time>
      </trkpt>
      <trkpt lat="43.99906" lon="5.14533">
        <ele>248.16</ele>
        <time>2020-02-03T14:05:57Z</time>
      </trkpt>
      <trkpt lat="43.99919" lon="5.14522">
        <ele>245.27</ele>
        <time>2020-02-03T14:06:11Z</time>
      </trkpt>
      <trkpt lat="43.9993" lon="5.14505">
        <ele>241.91</ele>
        <time>2020-02-03T14:06:26Z</time>
      </trkpt>
      <trkpt lat="43.9994" lon="5.14491">
        <ele>239.02</ele>
        <time>2020-02-03T14:06:43Z</time>
      </trkpt>
      <trkpt lat="43.99959" lon="5.14471">
        <ele>236.14</ele>
        <time>2020-02-03T14:07:05Z</time>
      </trkpt>
      <trkpt lat="43.99976" lon="5.14458">
        <ele>233.26</ele>
        <time>2020-02-03T14:07:28Z</time>
      </trkpt>
      <trkpt lat="43.9998" lon="5.14456">
        <ele>232.3</ele>
        <time>2020-02-03T14:07:40Z</time>
      </trkpt>
      <trkpt lat="43.99979" lon="5.14461">
        <ele>230.37</ele>
        <time>2020-02-03T14:08:01Z</time>
      </trkpt>
      <trkpt lat="43.99979" lon="5.14461">
        <ele>230.37</ele>
        <time>2020-02-03T14:08:04Z</time>
      </trkpt>
    </trkseg>
  </trk>
</gpx>